<?xml version="1.0" encoding="UTF-8" standalone="no" ?>
<gpx xmlns="http://www.topografix.com/GPX/1/1" xmlns:xsi="http://www.w3.org/2001/XMLSchema-instance" xsi:schemaLocation="http://www.topografix.com/GPX/1/1 http://www.topografix.com/GPX/1/1/gpx.xsd" version="1.1" creator="VisuGPX - https://www.visugpx.com">
  <metadata>
    <name>Le puy de Pourcharet et la haute vallée de la Sioule - 14288 - UtagawaVTT.com</name>
  </metadata>
  <trk>
    <name><![CDATA[Le puy de Pourcharet et la haute vallée de la Sioule - 14288 - UtagawaVTT.com]]></name>
    <trkseg>
      <trkpt lat="45.66898" lon="2.87861">
        <ele>1024.581543</ele>
        <time>2016-10-10T13:28:09Z</time>
      </trkpt>
      <trkpt lat="45.66912" lon="2.87863">
        <ele>1024.245239</ele>
        <time>2016-10-10T13:28:13Z</time>
      </trkpt>
      <trkpt lat="45.66912" lon="2.87848">
        <ele>1024.696289</ele>
        <time>2016-10-10T13:28:18Z</time>
      </trkpt>
      <trkpt lat="45.6692" lon="2.87825">
        <ele>1025.26355</ele>
        <time>2016-10-10T13:28:23Z</time>
      </trkpt>
      <trkpt lat="45.66938" lon="2.87802">
        <ele>1025.388794</ele>
        <time>2016-10-10T13:28:29Z</time>
      </trkpt>
      <trkpt lat="45.66969" lon="2.8779">
        <ele>1024.082886</ele>
        <time>2016-10-10T13:28:36Z</time>
      </trkpt>
      <trkpt lat="45.66995" lon="2.87795">
        <ele>1022.480286</ele>
        <time>2016-10-10T13:28:41Z</time>
      </trkpt>
      <trkpt lat="45.67012" lon="2.87803">
        <ele>1021.241272</ele>
        <time>2016-10-10T13:28:45Z</time>
      </trkpt>
      <trkpt lat="45.67028" lon="2.87799">
        <ele>1020.212524</ele>
        <time>2016-10-10T13:28:49Z</time>
      </trkpt>
      <trkpt lat="45.67038" lon="2.87762">
        <ele>1020.150024</ele>
        <time>2016-10-10T13:28:54Z</time>
      </trkpt>
      <trkpt lat="45.67048" lon="2.87707">
        <ele>1020.380188</ele>
        <time>2016-10-10T13:28:59Z</time>
      </trkpt>
      <trkpt lat="45.67059" lon="2.87626">
        <ele>1021.137268</ele>
        <time>2016-10-10T13:29:06Z</time>
      </trkpt>
      <trkpt lat="45.67065" lon="2.87571">
        <ele>1020.806335</ele>
        <time>2016-10-10T13:29:11Z</time>
      </trkpt>
      <trkpt lat="45.67072" lon="2.87515">
        <ele>1019.668762</ele>
        <time>2016-10-10T13:29:16Z</time>
      </trkpt>
      <trkpt lat="45.67085" lon="2.87444">
        <ele>1017.701233</ele>
        <time>2016-10-10T13:29:22Z</time>
      </trkpt>
      <trkpt lat="45.67099" lon="2.87396">
        <ele>1016.557434</ele>
        <time>2016-10-10T13:29:28Z</time>
      </trkpt>
      <trkpt lat="45.67106" lon="2.8736">
        <ele>1016.027039</ele>
        <time>2016-10-10T13:29:33Z</time>
      </trkpt>
      <trkpt lat="45.67113" lon="2.87335">
        <ele>1015.363708</ele>
        <time>2016-10-10T13:29:39Z</time>
      </trkpt>
      <trkpt lat="45.67123" lon="2.87314">
        <ele>1014.435791</ele>
        <time>2016-10-10T13:29:43Z</time>
      </trkpt>
      <trkpt lat="45.67126" lon="2.87299">
        <ele>1013.947449</ele>
        <time>2016-10-10T13:29:47Z</time>
      </trkpt>
      <trkpt lat="45.67131" lon="2.87274">
        <ele>1012.627441</ele>
        <time>2016-10-10T13:29:52Z</time>
      </trkpt>
      <trkpt lat="45.67141" lon="2.87224">
        <ele>1009.175415</ele>
        <time>2016-10-10T13:29:59Z</time>
      </trkpt>
      <trkpt lat="45.67152" lon="2.87178">
        <ele>1004.786377</ele>
        <time>2016-10-10T13:30:05Z</time>
      </trkpt>
      <trkpt lat="45.67163" lon="2.87144">
        <ele>1000.896301</ele>
        <time>2016-10-10T13:30:10Z</time>
      </trkpt>
      <trkpt lat="45.67166" lon="2.87123">
        <ele>998.763489</ele>
        <time>2016-10-10T13:30:13Z</time>
      </trkpt>
      <trkpt lat="45.67167" lon="2.87073">
        <ele>994.684998</ele>
        <time>2016-10-10T13:30:20Z</time>
      </trkpt>
      <trkpt lat="45.67171" lon="2.87032">
        <ele>990.851135</ele>
        <time>2016-10-10T13:30:26Z</time>
      </trkpt>
      <trkpt lat="45.67175" lon="2.86954">
        <ele>982.964844</ele>
        <time>2016-10-10T13:30:36Z</time>
      </trkpt>
      <trkpt lat="45.67175" lon="2.86923">
        <ele>980.247131</ele>
        <time>2016-10-10T13:30:40Z</time>
      </trkpt>
      <trkpt lat="45.67171" lon="2.86885">
        <ele>977.800964</ele>
        <time>2016-10-10T13:30:46Z</time>
      </trkpt>
      <trkpt lat="45.67165" lon="2.86845">
        <ele>974.766663</ele>
        <time>2016-10-10T13:30:54Z</time>
      </trkpt>
      <trkpt lat="45.67153" lon="2.86796">
        <ele>972.483337</ele>
        <time>2016-10-10T13:33:04Z</time>
      </trkpt>
      <trkpt lat="45.67144" lon="2.86772">
        <ele>971.244629</ele>
        <time>2016-10-10T13:33:09Z</time>
      </trkpt>
      <trkpt lat="45.6714" lon="2.86763">
        <ele>970.786255</ele>
        <time>2016-10-10T13:33:11Z</time>
      </trkpt>
      <trkpt lat="45.6713" lon="2.86748">
        <ele>969.884644</ele>
        <time>2016-10-10T13:33:14Z</time>
      </trkpt>
      <trkpt lat="45.67119" lon="2.86735">
        <ele>968.871521</ele>
        <time>2016-10-10T13:33:17Z</time>
      </trkpt>
      <trkpt lat="45.67104" lon="2.86721">
        <ele>967.46582</ele>
        <time>2016-10-10T13:33:21Z</time>
      </trkpt>
      <trkpt lat="45.67073" lon="2.86711">
        <ele>965.263916</ele>
        <time>2016-10-10T13:33:28Z</time>
      </trkpt>
      <trkpt lat="45.67047" lon="2.86688">
        <ele>960.740417</ele>
        <time>2016-10-10T13:33:35Z</time>
      </trkpt>
      <trkpt lat="45.67025" lon="2.86665">
        <ele>956.954895</ele>
        <time>2016-10-10T13:33:41Z</time>
      </trkpt>
      <trkpt lat="45.67" lon="2.8664">
        <ele>954.706299</ele>
        <time>2016-10-10T13:33:48Z</time>
      </trkpt>
      <trkpt lat="45.6698" lon="2.86634">
        <ele>955.694153</ele>
        <time>2016-10-10T13:33:54Z</time>
      </trkpt>
      <trkpt lat="45.66964" lon="2.86615">
        <ele>956.662415</ele>
        <time>2016-10-10T13:34:02Z</time>
      </trkpt>
      <trkpt lat="45.66946" lon="2.86596">
        <ele>958.859985</ele>
        <time>2016-10-10T13:34:11Z</time>
      </trkpt>
      <trkpt lat="45.66944" lon="2.86584">
        <ele>959.265015</ele>
        <time>2016-10-10T13:34:20Z</time>
      </trkpt>
      <trkpt lat="45.66936" lon="2.86564">
        <ele>960.909973</ele>
        <time>2016-10-10T13:35:22Z</time>
      </trkpt>
      <trkpt lat="45.66933" lon="2.86541">
        <ele>962.067505</ele>
        <time>2016-10-10T13:35:28Z</time>
      </trkpt>
      <trkpt lat="45.66927" lon="2.86516">
        <ele>963.833435</ele>
        <time>2016-10-10T13:35:41Z</time>
      </trkpt>
      <trkpt lat="45.66945" lon="2.86456">
        <ele>965.197632</ele>
        <time>2016-10-10T13:40:51Z</time>
      </trkpt>
      <trkpt lat="45.66948" lon="2.86431">
        <ele>966.080139</ele>
        <time>2016-10-10T13:40:57Z</time>
      </trkpt>
      <trkpt lat="45.66948" lon="2.86423">
        <ele>966.386292</ele>
        <time>2016-10-10T13:42:13Z</time>
      </trkpt>
      <trkpt lat="45.66918" lon="2.86409">
        <ele>968.446045</ele>
        <time>2016-10-10T13:42:23Z</time>
      </trkpt>
      <trkpt lat="45.66896" lon="2.86404">
        <ele>969.331543</ele>
        <time>2016-10-10T13:42:30Z</time>
      </trkpt>
      <trkpt lat="45.66877" lon="2.86405">
        <ele>969.968384</ele>
        <time>2016-10-10T13:42:37Z</time>
      </trkpt>
      <trkpt lat="45.66871" lon="2.86392">
        <ele>969.760986</ele>
        <time>2016-10-10T13:42:43Z</time>
      </trkpt>
      <trkpt lat="45.6687" lon="2.86355">
        <ele>966.943787</ele>
        <time>2016-10-10T13:44:35Z</time>
      </trkpt>
      <trkpt lat="45.66869" lon="2.86348">
        <ele>966.409058</ele>
        <time>2016-10-10T13:46:39Z</time>
      </trkpt>
      <trkpt lat="45.66872" lon="2.8632">
        <ele>963.773987</ele>
        <time>2016-10-10T13:46:43Z</time>
      </trkpt>
      <trkpt lat="45.66876" lon="2.86308">
        <ele>962.446777</ele>
        <time>2016-10-10T13:46:48Z</time>
      </trkpt>
      <trkpt lat="45.66884" lon="2.86293">
        <ele>961.072754</ele>
        <time>2016-10-10T13:46:53Z</time>
      </trkpt>
      <trkpt lat="45.66902" lon="2.86272">
        <ele>959.647522</ele>
        <time>2016-10-10T13:47:00Z</time>
      </trkpt>
      <trkpt lat="45.66922" lon="2.8626">
        <ele>958.33844</ele>
        <time>2016-10-10T13:47:06Z</time>
      </trkpt>
      <trkpt lat="45.6696" lon="2.86244">
        <ele>952.99054</ele>
        <time>2016-10-10T13:47:24Z</time>
      </trkpt>
      <trkpt lat="45.66968" lon="2.86243">
        <ele>951.860901</ele>
        <time>2016-10-10T13:47:35Z</time>
      </trkpt>
      <trkpt lat="45.67069" lon="2.86225">
        <ele>933.770325</ele>
        <time>2016-10-10T13:50:15Z</time>
      </trkpt>
      <trkpt lat="45.67083" lon="2.8622">
        <ele>931.356689</ele>
        <time>2016-10-10T13:50:20Z</time>
      </trkpt>
      <trkpt lat="45.67095" lon="2.86209">
        <ele>928.796204</ele>
        <time>2016-10-10T13:53:21Z</time>
      </trkpt>
      <trkpt lat="45.67096" lon="2.86195">
        <ele>927.227539</ele>
        <time>2016-10-10T13:53:25Z</time>
      </trkpt>
      <trkpt lat="45.67069" lon="2.86148">
        <ele>924.79303</ele>
        <time>2016-10-10T13:53:34Z</time>
      </trkpt>
      <trkpt lat="45.6705" lon="2.86129">
        <ele>924.092529</ele>
        <time>2016-10-10T13:53:39Z</time>
      </trkpt>
      <trkpt lat="45.67036" lon="2.86107">
        <ele>923.012512</ele>
        <time>2016-10-10T13:53:43Z</time>
      </trkpt>
      <trkpt lat="45.67037" lon="2.86077">
        <ele>920.200012</ele>
        <time>2016-10-10T13:53:47Z</time>
      </trkpt>
      <trkpt lat="45.67046" lon="2.86052">
        <ele>921.26123</ele>
        <time>2016-10-10T13:53:51Z</time>
      </trkpt>
      <trkpt lat="45.6705" lon="2.86048">
        <ele>921.369995</ele>
        <time>2016-10-10T13:53:52Z</time>
      </trkpt>
      <trkpt lat="45.67057" lon="2.86042">
        <ele>921.407104</ele>
        <time>2016-10-10T13:53:58Z</time>
      </trkpt>
      <trkpt lat="45.67079" lon="2.86042">
        <ele>920.444153</ele>
        <time>2016-10-10T13:54:03Z</time>
      </trkpt>
      <trkpt lat="45.67196" lon="2.86084">
        <ele>920.855408</ele>
        <time>2016-10-10T13:54:23Z</time>
      </trkpt>
      <trkpt lat="45.67246" lon="2.86085">
        <ele>922.740601</ele>
        <time>2016-10-10T13:54:31Z</time>
      </trkpt>
      <trkpt lat="45.67297" lon="2.86089">
        <ele>923.555908</ele>
        <time>2016-10-10T13:54:40Z</time>
      </trkpt>
      <trkpt lat="45.67348" lon="2.86087">
        <ele>924.434998</ele>
        <time>2016-10-10T13:54:48Z</time>
      </trkpt>
      <trkpt lat="45.67381" lon="2.86091">
        <ele>925.002319</ele>
        <time>2016-10-10T13:54:54Z</time>
      </trkpt>
      <trkpt lat="45.67399" lon="2.86101">
        <ele>924.158325</ele>
      </trkpt>
      <trkpt lat="45.67412" lon="2.86096">
        <ele>925.385193</ele>
      </trkpt>
      <trkpt lat="45.67424" lon="2.86093">
        <ele>925.893188</ele>
      </trkpt>
      <trkpt lat="45.67439" lon="2.86097">
        <ele>925.388</ele>
        <time>2016-10-10T13:55:10Z</time>
      </trkpt>
      <trkpt lat="45.6746" lon="2.86097">
        <ele>925.706421</ele>
        <time>2016-10-10T13:55:16Z</time>
      </trkpt>
      <trkpt lat="45.67477" lon="2.86088">
        <ele>927.724365</ele>
        <time>2016-10-10T13:55:22Z</time>
      </trkpt>
      <trkpt lat="45.67503" lon="2.86079">
        <ele>930.137085</ele>
        <time>2016-10-10T13:55:30Z</time>
      </trkpt>
      <trkpt lat="45.67532" lon="2.86072">
        <ele>932.422363</ele>
        <time>2016-10-10T13:56:24Z</time>
      </trkpt>
      <trkpt lat="45.67552" lon="2.86075">
        <ele>933.11969</ele>
        <time>2016-10-10T13:56:29Z</time>
      </trkpt>
      <trkpt lat="45.67562" lon="2.86088">
        <ele>933.151306</ele>
        <time>2016-10-10T13:56:33Z</time>
      </trkpt>
      <trkpt lat="45.6757" lon="2.86102">
        <ele>933.057068</ele>
        <time>2016-10-10T13:59:25Z</time>
      </trkpt>
      <trkpt lat="45.67581" lon="2.86089">
        <ele>935.158997</ele>
        <time>2016-10-10T13:59:30Z</time>
      </trkpt>
      <trkpt lat="45.6759" lon="2.86065">
        <ele>937.78949</ele>
        <time>2016-10-10T13:59:37Z</time>
      </trkpt>
      <trkpt lat="45.67597" lon="2.86049">
        <ele>939.690002</ele>
        <time>2016-10-10T13:59:48Z</time>
      </trkpt>
      <trkpt lat="45.67627" lon="2.86084">
        <ele>941.48999</ele>
        <time>2016-10-10T14:08:11Z</time>
      </trkpt>
      <trkpt lat="45.67635" lon="2.86089">
        <ele>942.195007</ele>
        <time>2016-10-10T14:09:05Z</time>
      </trkpt>
      <trkpt lat="45.67641" lon="2.86132">
        <ele>940.482483</ele>
      </trkpt>
      <trkpt lat="45.67652" lon="2.86131">
        <ele>942.23999</ele>
      </trkpt>
      <trkpt lat="45.67667" lon="2.86145">
        <ele>943.789978</ele>
      </trkpt>
      <trkpt lat="45.67675" lon="2.86154">
        <ele>944.544983</ele>
      </trkpt>
      <trkpt lat="45.6769" lon="2.86177">
        <ele>945.323364</ele>
        <time>2016-10-10T14:22:19Z</time>
      </trkpt>
      <trkpt lat="45.67715" lon="2.8621">
        <ele>945.257446</ele>
        <time>2016-10-10T14:22:27Z</time>
      </trkpt>
      <trkpt lat="45.67719" lon="2.86213">
        <ele>945.338745</ele>
        <time>2016-10-10T14:22:31Z</time>
      </trkpt>
      <trkpt lat="45.67718" lon="2.86212">
        <ele>945.288757</ele>
        <time>2016-10-10T14:22:45Z</time>
      </trkpt>
      <trkpt lat="45.67732" lon="2.8622">
        <ele>945.397522</ele>
        <time>2016-10-10T14:26:51Z</time>
      </trkpt>
      <trkpt lat="45.67764" lon="2.86232">
        <ele>945.188721</ele>
        <time>2016-10-10T14:26:59Z</time>
      </trkpt>
      <trkpt lat="45.67804" lon="2.86249">
        <ele>943.583496</ele>
        <time>2016-10-10T14:27:07Z</time>
      </trkpt>
      <trkpt lat="45.67845" lon="2.86266">
        <ele>941.370483</ele>
        <time>2016-10-10T14:27:16Z</time>
      </trkpt>
      <trkpt lat="45.6786" lon="2.86277">
        <ele>939.983093</ele>
        <time>2016-10-10T14:27:21Z</time>
      </trkpt>
      <trkpt lat="45.67876" lon="2.8629">
        <ele>940.582092</ele>
        <time>2016-10-10T14:27:25Z</time>
      </trkpt>
      <trkpt lat="45.67948" lon="2.86357">
        <ele>941.807495</ele>
        <time>2016-10-10T14:27:39Z</time>
      </trkpt>
      <trkpt lat="45.67963" lon="2.86372">
        <ele>940.928955</ele>
        <time>2016-10-10T14:27:43Z</time>
      </trkpt>
      <trkpt lat="45.67972" lon="2.86378">
        <ele>940.514648</ele>
        <time>2016-10-10T14:27:50Z</time>
      </trkpt>
      <trkpt lat="45.67993" lon="2.86407">
        <ele>938.825806</ele>
        <time>2016-10-10T14:30:39Z</time>
      </trkpt>
      <trkpt lat="45.68015" lon="2.86436">
        <ele>935.282654</ele>
        <time>2016-10-10T14:30:46Z</time>
      </trkpt>
      <trkpt lat="45.68034" lon="2.86467">
        <ele>932.321838</ele>
        <time>2016-10-10T14:30:54Z</time>
      </trkpt>
      <trkpt lat="45.68051" lon="2.86509">
        <ele>928.706848</ele>
        <time>2016-10-10T14:31:02Z</time>
      </trkpt>
      <trkpt lat="45.68064" lon="2.86549">
        <ele>925.193176</ele>
        <time>2016-10-10T14:31:09Z</time>
      </trkpt>
      <trkpt lat="45.68078" lon="2.86574">
        <ele>922.737915</ele>
        <time>2016-10-10T14:31:15Z</time>
      </trkpt>
      <trkpt lat="45.68119" lon="2.86629">
        <ele>916.582947</ele>
        <time>2016-10-10T14:32:01Z</time>
      </trkpt>
      <trkpt lat="45.68136" lon="2.86656">
        <ele>913.470032</ele>
        <time>2016-10-10T14:32:07Z</time>
      </trkpt>
      <trkpt lat="45.68171" lon="2.86721">
        <ele>903.959595</ele>
        <time>2016-10-10T14:32:23Z</time>
      </trkpt>
      <trkpt lat="45.68191" lon="2.86732">
        <ele>901.946899</ele>
        <time>2016-10-10T14:32:29Z</time>
      </trkpt>
      <trkpt lat="45.68203" lon="2.86734">
        <ele>901.351563</ele>
        <time>2016-10-10T14:32:32Z</time>
      </trkpt>
      <trkpt lat="45.68247" lon="2.86732">
        <ele>898.470093</ele>
        <time>2016-10-10T14:32:42Z</time>
      </trkpt>
      <trkpt lat="45.6828" lon="2.86746">
        <ele>893.789001</ele>
        <time>2016-10-10T14:32:49Z</time>
      </trkpt>
      <trkpt lat="45.68293" lon="2.86752">
        <ele>892.009338</ele>
        <time>2016-10-10T14:32:53Z</time>
      </trkpt>
      <trkpt lat="45.68296" lon="2.86763">
        <ele>891.078308</ele>
        <time>2016-10-10T14:32:58Z</time>
      </trkpt>
      <trkpt lat="45.68256" lon="2.8683">
        <ele>887.557922</ele>
        <time>2016-10-10T14:33:12Z</time>
      </trkpt>
      <trkpt lat="45.68247" lon="2.86837">
        <ele>886.765198</ele>
        <time>2016-10-10T14:33:14Z</time>
      </trkpt>
      <trkpt lat="45.68222" lon="2.86852">
        <ele>884.703735</ele>
        <time>2016-10-10T14:33:20Z</time>
      </trkpt>
      <trkpt lat="45.68192" lon="2.86857">
        <ele>883.372498</ele>
        <time>2016-10-10T14:33:31Z</time>
      </trkpt>
      <trkpt lat="45.68188" lon="2.86861">
        <ele>882.882507</ele>
        <time>2016-10-10T14:33:51Z</time>
      </trkpt>
      <trkpt lat="45.68169" lon="2.86854">
        <ele>883.08252</ele>
        <time>2016-10-10T14:34:00Z</time>
      </trkpt>
      <trkpt lat="45.68139" lon="2.86869">
        <ele>880.135376</ele>
        <time>2016-10-10T14:36:10Z</time>
      </trkpt>
      <trkpt lat="45.68127" lon="2.86881">
        <ele>879.230713</ele>
        <time>2016-10-10T14:36:15Z</time>
      </trkpt>
      <trkpt lat="45.68117" lon="2.86921">
        <ele>878.225708</ele>
        <time>2016-10-10T14:36:23Z</time>
      </trkpt>
      <trkpt lat="45.68113" lon="2.86928">
        <ele>878.298401</ele>
        <time>2016-10-10T14:36:27Z</time>
      </trkpt>
      <trkpt lat="45.68099" lon="2.8693">
        <ele>878.696899</ele>
        <time>2016-10-10T14:36:32Z</time>
      </trkpt>
      <trkpt lat="45.68088" lon="2.8693">
        <ele>879.020386</ele>
        <time>2016-10-10T14:36:36Z</time>
      </trkpt>
      <trkpt lat="45.68077" lon="2.86941">
        <ele>879.603638</ele>
        <time>2016-10-10T14:36:40Z</time>
      </trkpt>
      <trkpt lat="45.68086" lon="2.86964">
        <ele>879.530945</ele>
        <time>2016-10-10T14:36:44Z</time>
      </trkpt>
      <trkpt lat="45.68101" lon="2.86983">
        <ele>878.767273</ele>
        <time>2016-10-10T14:36:48Z</time>
      </trkpt>
      <trkpt lat="45.68101" lon="2.87001">
        <ele>878.77002</ele>
        <time>2016-10-10T14:36:51Z</time>
      </trkpt>
      <trkpt lat="45.68092" lon="2.87009">
        <ele>879.340027</ele>
        <time>2016-10-10T14:36:54Z</time>
      </trkpt>
      <trkpt lat="45.68072" lon="2.87014">
        <ele>881.377075</ele>
        <time>2016-10-10T14:37:00Z</time>
      </trkpt>
      <trkpt lat="45.68068" lon="2.87014">
        <ele>881.87677</ele>
        <time>2016-10-10T14:37:04Z</time>
      </trkpt>
      <trkpt lat="45.68044" lon="2.87081">
        <ele>886.658875</ele>
        <time>2016-10-10T14:39:23Z</time>
      </trkpt>
      <trkpt lat="45.68025" lon="2.87131">
        <ele>890.333862</ele>
        <time>2016-10-10T14:39:30Z</time>
      </trkpt>
      <trkpt lat="45.68011" lon="2.8716">
        <ele>892.267334</ele>
        <time>2016-10-10T14:39:36Z</time>
      </trkpt>
      <trkpt lat="45.67985" lon="2.87201">
        <ele>895.630005</ele>
        <time>2016-10-10T14:39:44Z</time>
      </trkpt>
      <trkpt lat="45.67965" lon="2.87229">
        <ele>897.289978</ele>
        <time>2016-10-10T14:39:50Z</time>
      </trkpt>
      <trkpt lat="45.67946" lon="2.87252">
        <ele>899.3479</ele>
        <time>2016-10-10T14:39:55Z</time>
      </trkpt>
      <trkpt lat="45.67924" lon="2.87273">
        <ele>902.183838</ele>
        <time>2016-10-10T14:40:01Z</time>
      </trkpt>
      <trkpt lat="45.67904" lon="2.87293">
        <ele>904.874756</ele>
        <time>2016-10-10T14:40:07Z</time>
      </trkpt>
      <trkpt lat="45.6789" lon="2.87311">
        <ele>907.49115</ele>
        <time>2016-10-10T14:40:12Z</time>
      </trkpt>
      <trkpt lat="45.67868" lon="2.87348">
        <ele>912.618958</ele>
        <time>2016-10-10T14:40:21Z</time>
      </trkpt>
      <trkpt lat="45.67861" lon="2.87362">
        <ele>914.682129</ele>
        <time>2016-10-10T14:40:25Z</time>
      </trkpt>
      <trkpt lat="45.67808" lon="2.87403">
        <ele>923.700623</ele>
        <time>2016-10-10T14:40:38Z</time>
      </trkpt>
      <trkpt lat="45.678" lon="2.87413">
        <ele>924.376282</ele>
        <time>2016-10-10T14:40:40Z</time>
      </trkpt>
      <trkpt lat="45.67774" lon="2.87463">
        <ele>924.029724</ele>
        <time>2016-10-10T14:40:47Z</time>
      </trkpt>
      <trkpt lat="45.67753" lon="2.87515">
        <ele>925.458923</ele>
        <time>2016-10-10T14:40:54Z</time>
      </trkpt>
      <trkpt lat="45.67742" lon="2.87533">
        <ele>928.726196</ele>
        <time>2016-10-10T14:40:57Z</time>
      </trkpt>
      <trkpt lat="45.67736" lon="2.87551">
        <ele>929.830322</ele>
        <time>2016-10-10T14:41:00Z</time>
      </trkpt>
      <trkpt lat="45.67744" lon="2.87582">
        <ele>931.288696</ele>
        <time>2016-10-10T14:41:04Z</time>
      </trkpt>
      <trkpt lat="45.67764" lon="2.87639">
        <ele>935.26001</ele>
        <time>2016-10-10T14:41:12Z</time>
      </trkpt>
      <trkpt lat="45.6778" lon="2.87699">
        <ele>938.342163</ele>
        <time>2016-10-10T14:41:21Z</time>
      </trkpt>
      <trkpt lat="45.67791" lon="2.87728">
        <ele>938.614624</ele>
        <time>2016-10-10T14:41:28Z</time>
      </trkpt>
      <trkpt lat="45.67801" lon="2.87738">
        <ele>937.316895</ele>
      </trkpt>
      <trkpt lat="45.67804" lon="2.87759">
        <ele>938.674988</ele>
      </trkpt>
      <trkpt lat="45.67802" lon="2.87801">
        <ele>942.387512</ele>
        <time>2016-10-10T14:41:35Z</time>
      </trkpt>
      <trkpt lat="45.67806" lon="2.87819">
        <ele>942.85907</ele>
        <time>2016-10-10T14:41:40Z</time>
      </trkpt>
      <trkpt lat="45.67845" lon="2.87845">
        <ele>936.841248</ele>
        <time>2016-10-10T14:44:42Z</time>
      </trkpt>
      <trkpt lat="45.67877" lon="2.87862">
        <ele>934.080017</ele>
        <time>2016-10-10T14:44:49Z</time>
      </trkpt>
      <trkpt lat="45.67911" lon="2.87873">
        <ele>932.32489</ele>
        <time>2016-10-10T14:44:56Z</time>
      </trkpt>
      <trkpt lat="45.67931" lon="2.87885">
        <ele>932.44873</ele>
        <time>2016-10-10T14:45:00Z</time>
      </trkpt>
      <trkpt lat="45.67935" lon="2.8789">
        <ele>932.640015</ele>
        <time>2016-10-10T14:45:01Z</time>
      </trkpt>
      <trkpt lat="45.67955" lon="2.87951">
        <ele>935.259583</ele>
        <time>2016-10-10T14:45:11Z</time>
      </trkpt>
      <trkpt lat="45.67969" lon="2.87996">
        <ele>936.915955</ele>
        <time>2016-10-10T14:45:24Z</time>
      </trkpt>
      <trkpt lat="45.6801" lon="2.87961">
        <ele>935.945007</ele>
        <time>2016-10-10T14:45:30Z</time>
      </trkpt>
      <trkpt lat="45.68055" lon="2.87915">
        <ele>935.499695</ele>
        <time>2016-10-10T14:45:37Z</time>
      </trkpt>
      <trkpt lat="45.68105" lon="2.87868">
        <ele>932.60498</ele>
        <time>2016-10-10T14:45:44Z</time>
      </trkpt>
      <trkpt lat="45.68128" lon="2.87857">
        <ele>931.506042</ele>
        <time>2016-10-10T14:45:47Z</time>
      </trkpt>
      <trkpt lat="45.68157" lon="2.87829">
        <ele>928.84082</ele>
        <time>2016-10-10T14:45:52Z</time>
      </trkpt>
      <trkpt lat="45.68162" lon="2.87822">
        <ele>928.269958</ele>
        <time>2016-10-10T14:45:53Z</time>
      </trkpt>
      <trkpt lat="45.68187" lon="2.87807">
        <ele>926.564026</ele>
        <time>2016-10-10T14:45:57Z</time>
      </trkpt>
      <trkpt lat="45.68242" lon="2.87795">
        <ele>924.027649</ele>
        <time>2016-10-10T14:46:05Z</time>
      </trkpt>
      <trkpt lat="45.68282" lon="2.87797">
        <ele>922.333313</ele>
        <time>2016-10-10T14:46:11Z</time>
      </trkpt>
      <trkpt lat="45.68306" lon="2.87791">
        <ele>920.608582</ele>
        <time>2016-10-10T14:46:16Z</time>
      </trkpt>
      <trkpt lat="45.68314" lon="2.87794">
        <ele>920.280457</ele>
        <time>2016-10-10T14:46:20Z</time>
      </trkpt>
      <trkpt lat="45.68321" lon="2.8781">
        <ele>921.246033</ele>
        <time>2016-10-10T14:46:25Z</time>
      </trkpt>
      <trkpt lat="45.6832" lon="2.87832">
        <ele>923.064819</ele>
        <time>2016-10-10T14:46:31Z</time>
      </trkpt>
      <trkpt lat="45.68308" lon="2.87873">
        <ele>926.175171</ele>
        <time>2016-10-10T14:46:41Z</time>
      </trkpt>
      <trkpt lat="45.68298" lon="2.87911">
        <ele>929.732483</ele>
        <time>2016-10-10T14:46:52Z</time>
      </trkpt>
      <trkpt lat="45.68301" lon="2.87928">
        <ele>931.227478</ele>
        <time>2016-10-10T14:46:56Z</time>
      </trkpt>
      <trkpt lat="45.68319" lon="2.87945">
        <ele>932.978027</ele>
        <time>2016-10-10T14:47:01Z</time>
      </trkpt>
      <trkpt lat="45.68341" lon="2.87983">
        <ele>940.832397</ele>
        <time>2016-10-10T14:47:07Z</time>
      </trkpt>
      <trkpt lat="45.68358" lon="2.88005">
        <ele>946.412048</ele>
        <time>2016-10-10T14:47:11Z</time>
      </trkpt>
      <trkpt lat="45.68363" lon="2.88005">
        <ele>946.892639</ele>
        <time>2016-10-10T14:47:12Z</time>
      </trkpt>
      <trkpt lat="45.68391" lon="2.87992">
        <ele>946.787964</ele>
        <time>2016-10-10T14:47:19Z</time>
      </trkpt>
      <trkpt lat="45.68405" lon="2.87981">
        <ele>946.82251</ele>
        <time>2016-10-10T14:47:24Z</time>
      </trkpt>
      <trkpt lat="45.68428" lon="2.87961">
        <ele>946.179016</ele>
        <time>2016-10-10T14:47:31Z</time>
      </trkpt>
      <trkpt lat="45.68441" lon="2.87955">
        <ele>947.004211</ele>
        <time>2016-10-10T14:47:36Z</time>
      </trkpt>
      <trkpt lat="45.6846" lon="2.87948">
        <ele>950.010193</ele>
        <time>2016-10-10T14:47:42Z</time>
      </trkpt>
      <trkpt lat="45.68488" lon="2.87944">
        <ele>954.842041</ele>
        <time>2016-10-10T14:47:49Z</time>
      </trkpt>
      <trkpt lat="45.68539" lon="2.87947">
        <ele>959.822327</ele>
        <time>2016-10-10T14:48:01Z</time>
      </trkpt>
      <trkpt lat="45.68606" lon="2.87938">
        <ele>962.788391</ele>
        <time>2016-10-10T14:48:15Z</time>
      </trkpt>
      <trkpt lat="45.68646" lon="2.87942">
        <ele>964.490845</ele>
        <time>2016-10-10T14:48:22Z</time>
      </trkpt>
      <trkpt lat="45.68704" lon="2.8795">
        <ele>965.907471</ele>
        <time>2016-10-10T14:48:32Z</time>
      </trkpt>
      <trkpt lat="45.68733" lon="2.87955">
        <ele>965.983032</ele>
        <time>2016-10-05T11:38:11Z</time>
      </trkpt>
      <trkpt lat="45.68748" lon="2.87956">
        <ele>965.964478</ele>
        <time>2016-10-05T11:38:16Z</time>
      </trkpt>
      <trkpt lat="45.68783" lon="2.87961">
        <ele>965.878723</ele>
        <time>2016-10-05T11:38:23Z</time>
      </trkpt>
      <trkpt lat="45.68826" lon="2.87965">
        <ele>964.05658</ele>
        <time>2016-10-05T11:38:30Z</time>
      </trkpt>
      <trkpt lat="45.68846" lon="2.8797">
        <ele>962.323303</ele>
      </trkpt>
      <trkpt lat="45.68853" lon="2.87978">
        <ele>961.062866</ele>
      </trkpt>
      <trkpt lat="45.68878" lon="2.88083">
        <ele>962.232361</ele>
        <time>2016-10-05T11:38:50Z</time>
      </trkpt>
      <trkpt lat="45.68902" lon="2.88093">
        <ele>961.395386</ele>
        <time>2016-10-05T11:38:52Z</time>
      </trkpt>
      <trkpt lat="45.68923" lon="2.88099">
        <ele>960.501038</ele>
        <time>2016-10-05T11:38:55Z</time>
      </trkpt>
      <trkpt lat="45.68934" lon="2.88115">
        <ele>960.84906</ele>
        <time>2016-10-05T11:38:58Z</time>
      </trkpt>
      <trkpt lat="45.68937" lon="2.88123">
        <ele>961.228455</ele>
        <time>2016-10-05T11:39:04Z</time>
      </trkpt>
      <trkpt lat="45.68933" lon="2.88189">
        <ele>963.634827</ele>
        <time>2016-10-05T11:39:10Z</time>
      </trkpt>
      <trkpt lat="45.68919" lon="2.88346">
        <ele>959.929504</ele>
        <time>2016-10-05T11:39:24Z</time>
      </trkpt>
      <trkpt lat="45.68912" lon="2.88403">
        <ele>959.411682</ele>
        <time>2016-10-05T11:39:30Z</time>
      </trkpt>
      <trkpt lat="45.68909" lon="2.88429">
        <ele>960.262512</ele>
        <time>2016-10-05T11:39:33Z</time>
      </trkpt>
      <trkpt lat="45.689" lon="2.88467">
        <ele>961.654968</ele>
        <time>2016-10-05T11:39:38Z</time>
      </trkpt>
      <trkpt lat="45.68891" lon="2.88491">
        <ele>962.27948</ele>
        <time>2016-10-05T11:39:43Z</time>
      </trkpt>
      <trkpt lat="45.68888" lon="2.88502">
        <ele>962.503601</ele>
        <time>2016-10-05T11:39:45Z</time>
      </trkpt>
      <trkpt lat="45.68896" lon="2.88538">
        <ele>962.930176</ele>
        <time>2016-10-05T11:39:52Z</time>
      </trkpt>
      <trkpt lat="45.68899" lon="2.88585">
        <ele>962.434753</ele>
        <time>2016-10-05T11:39:57Z</time>
      </trkpt>
      <trkpt lat="45.68889" lon="2.88622">
        <ele>960.547607</ele>
        <time>2016-10-05T11:40:02Z</time>
      </trkpt>
      <trkpt lat="45.68882" lon="2.88639">
        <ele>959.169678</ele>
        <time>2016-10-05T11:40:05Z</time>
      </trkpt>
      <trkpt lat="45.68869" lon="2.88639">
        <ele>958.427246</ele>
        <time>2016-10-05T11:40:10Z</time>
      </trkpt>
      <trkpt lat="45.6886" lon="2.88631">
        <ele>958.420227</ele>
        <time>2016-10-05T11:40:13Z</time>
      </trkpt>
      <trkpt lat="45.68849" lon="2.88638">
        <ele>957.313782</ele>
        <time>2016-10-05T11:40:17Z</time>
      </trkpt>
      <trkpt lat="45.68843" lon="2.88734">
        <ele>948.533203</ele>
        <time>2016-10-05T11:40:28Z</time>
      </trkpt>
      <trkpt lat="45.68851" lon="2.88808">
        <ele>944.258545</ele>
        <time>2016-10-05T11:40:34Z</time>
      </trkpt>
      <trkpt lat="45.68862" lon="2.88896">
        <ele>944.101807</ele>
        <time>2016-10-05T11:40:46Z</time>
      </trkpt>
      <trkpt lat="45.68857" lon="2.8894">
        <ele>946.039978</ele>
        <time>2016-10-05T11:40:51Z</time>
      </trkpt>
      <trkpt lat="45.68846" lon="2.88996">
        <ele>948.028809</ele>
        <time>2016-10-05T11:40:56Z</time>
      </trkpt>
      <trkpt lat="45.68826" lon="2.89063">
        <ele>947.443726</ele>
        <time>2016-10-05T11:41:02Z</time>
      </trkpt>
      <trkpt lat="45.68819" lon="2.8908">
        <ele>946.679382</ele>
        <time>2016-10-05T11:41:04Z</time>
      </trkpt>
      <trkpt lat="45.68786" lon="2.89126">
        <ele>945.408325</ele>
        <time>2016-10-05T11:41:07Z</time>
      </trkpt>
      <trkpt lat="45.68735" lon="2.89181">
        <ele>943.838257</ele>
        <time>2016-10-05T11:41:15Z</time>
      </trkpt>
      <trkpt lat="45.6869" lon="2.89227">
        <ele>941.97522</ele>
        <time>2016-10-05T11:41:22Z</time>
      </trkpt>
      <trkpt lat="45.68648" lon="2.89247">
        <ele>941.626587</ele>
        <time>2016-10-05T11:41:28Z</time>
      </trkpt>
      <trkpt lat="45.68612" lon="2.89261">
        <ele>942.00354</ele>
        <time>2016-10-05T11:41:33Z</time>
      </trkpt>
      <trkpt lat="45.68585" lon="2.89272">
        <ele>941.027161</ele>
        <time>2016-10-05T11:41:37Z</time>
      </trkpt>
      <trkpt lat="45.68561" lon="2.89289">
        <ele>938.932495</ele>
        <time>2016-10-05T11:41:42Z</time>
      </trkpt>
      <trkpt lat="45.68552" lon="2.89309">
        <ele>938.048706</ele>
        <time>2016-10-05T11:41:47Z</time>
      </trkpt>
      <trkpt lat="45.68556" lon="2.8933">
        <ele>938.807251</ele>
        <time>2016-10-05T11:41:52Z</time>
      </trkpt>
      <trkpt lat="45.68565" lon="2.8934">
        <ele>938.982422</ele>
        <time>2016-10-05T11:41:59Z</time>
      </trkpt>
      <trkpt lat="45.68578" lon="2.89349">
        <ele>939.268921</ele>
        <time>2016-10-05T11:46:32Z</time>
      </trkpt>
      <trkpt lat="45.68597" lon="2.89359">
        <ele>939.755371</ele>
        <time>2016-10-05T11:46:39Z</time>
      </trkpt>
      <trkpt lat="45.68618" lon="2.89374">
        <ele>941.556274</ele>
        <time>2016-10-05T11:46:45Z</time>
      </trkpt>
      <trkpt lat="45.68648" lon="2.89387">
        <ele>943.171265</ele>
        <time>2016-10-05T11:46:53Z</time>
      </trkpt>
      <trkpt lat="45.68649" lon="2.89406">
        <ele>946.405029</ele>
        <time>2016-10-05T11:46:58Z</time>
      </trkpt>
      <trkpt lat="45.68647" lon="2.89408">
        <ele>946.732483</ele>
        <time>2016-10-05T11:46:59Z</time>
      </trkpt>
      <trkpt lat="45.68626" lon="2.89415">
        <ele>948.377502</ele>
        <time>2016-10-05T11:47:06Z</time>
      </trkpt>
      <trkpt lat="45.68578" lon="2.89437">
        <ele>952.840881</ele>
        <time>2016-10-05T11:47:19Z</time>
      </trkpt>
      <trkpt lat="45.68558" lon="2.89445">
        <ele>954.23999</ele>
        <time>2016-10-05T11:47:25Z</time>
      </trkpt>
      <trkpt lat="45.68534" lon="2.89456">
        <ele>956.429993</ele>
        <time>2016-10-05T11:47:32Z</time>
      </trkpt>
      <trkpt lat="45.68484" lon="2.89475">
        <ele>961.034241</ele>
        <time>2016-10-05T11:47:46Z</time>
      </trkpt>
      <trkpt lat="45.68461" lon="2.89481">
        <ele>963.357483</ele>
        <time>2016-10-05T11:47:53Z</time>
      </trkpt>
      <trkpt lat="45.68441" lon="2.89481">
        <ele>964.741272</ele>
        <time>2016-10-05T11:47:59Z</time>
      </trkpt>
      <trkpt lat="45.68425" lon="2.89477">
        <ele>965.176025</ele>
        <time>2016-10-05T11:48:05Z</time>
      </trkpt>
      <trkpt lat="45.68418" lon="2.89484">
        <ele>966.875183</ele>
        <time>2016-10-05T11:48:07Z</time>
      </trkpt>
      <trkpt lat="45.68418" lon="2.8949">
        <ele>967.857361</ele>
        <time>2016-10-05T11:48:15Z</time>
      </trkpt>
      <trkpt lat="45.68439" lon="2.89508">
        <ele>970.027161</ele>
        <time>2016-10-05T11:49:58Z</time>
      </trkpt>
      <trkpt lat="45.68459" lon="2.89517">
        <ele>970.702393</ele>
        <time>2016-10-05T11:50:02Z</time>
      </trkpt>
      <trkpt lat="45.685" lon="2.89532">
        <ele>972.760193</ele>
        <time>2016-10-05T11:50:09Z</time>
      </trkpt>
      <trkpt lat="45.68537" lon="2.89535">
        <ele>973.181274</ele>
        <time>2016-10-05T11:50:16Z</time>
      </trkpt>
      <trkpt lat="45.68582" lon="2.89532">
        <ele>973.050171</ele>
        <time>2016-10-05T11:50:25Z</time>
      </trkpt>
      <trkpt lat="45.68617" lon="2.89522">
        <ele>971.5</ele>
        <time>2016-10-05T11:50:33Z</time>
      </trkpt>
      <trkpt lat="45.68639" lon="2.89518">
        <ele>970.320007</ele>
        <time>2016-10-05T11:50:39Z</time>
      </trkpt>
      <trkpt lat="45.68657" lon="2.89519">
        <ele>970.478088</ele>
        <time>2016-10-05T11:50:45Z</time>
      </trkpt>
      <trkpt lat="45.68673" lon="2.89524">
        <ele>971.071106</ele>
        <time>2016-10-05T11:50:50Z</time>
      </trkpt>
      <trkpt lat="45.68704" lon="2.89547">
        <ele>974.52002</ele>
        <time>2016-10-05T11:50:58Z</time>
      </trkpt>
      <trkpt lat="45.68742" lon="2.89573">
        <ele>975.972656</ele>
        <time>2016-10-05T11:51:16Z</time>
      </trkpt>
      <trkpt lat="45.68753" lon="2.89587">
        <ele>977.92627</ele>
        <time>2016-10-05T11:51:24Z</time>
      </trkpt>
      <trkpt lat="45.68755" lon="2.89597">
        <ele>979.446228</ele>
        <time>2016-10-05T11:52:26Z</time>
      </trkpt>
      <trkpt lat="45.68755" lon="2.89606">
        <ele>981</ele>
        <time>2016-10-05T11:52:34Z</time>
      </trkpt>
      <trkpt lat="45.68745" lon="2.89667">
        <ele>986.79248</ele>
        <time>2016-10-05T11:52:42Z</time>
      </trkpt>
      <trkpt lat="45.6871" lon="2.89746">
        <ele>991.430664</ele>
        <time>2016-10-05T11:52:59Z</time>
      </trkpt>
      <trkpt lat="45.68689" lon="2.89799">
        <ele>993.082458</ele>
        <time>2016-10-05T11:53:07Z</time>
      </trkpt>
      <trkpt lat="45.68665" lon="2.89846">
        <ele>993.737488</ele>
        <time>2016-10-05T11:53:14Z</time>
      </trkpt>
      <trkpt lat="45.68645" lon="2.8987">
        <ele>994.390015</ele>
        <time>2016-10-05T11:53:20Z</time>
      </trkpt>
      <trkpt lat="45.68621" lon="2.89902">
        <ele>995.429993</ele>
        <time>2016-10-05T11:53:28Z</time>
      </trkpt>
      <trkpt lat="45.68535" lon="2.90035">
        <ele>997.426697</ele>
        <time>2016-10-05T11:53:53Z</time>
      </trkpt>
      <trkpt lat="45.68511" lon="2.90075">
        <ele>998.068176</ele>
        <time>2016-10-05T11:54:06Z</time>
      </trkpt>
      <trkpt lat="45.68504" lon="2.90082">
        <ele>998.152588</ele>
        <time>2016-10-05T11:55:32Z</time>
      </trkpt>
      <trkpt lat="45.68491" lon="2.90103">
        <ele>998.376282</ele>
        <time>2016-10-05T11:55:37Z</time>
      </trkpt>
      <trkpt lat="45.6848" lon="2.90126">
        <ele>998.654602</ele>
        <time>2016-10-05T11:55:44Z</time>
      </trkpt>
      <trkpt lat="45.68478" lon="2.90146">
        <ele>998.73999</ele>
        <time>2016-10-05T11:55:57Z</time>
      </trkpt>
      <trkpt lat="45.68478" lon="2.90169">
        <ele>998.734985</ele>
        <time>2016-10-05T11:58:01Z</time>
      </trkpt>
      <trkpt lat="45.68474" lon="2.9021">
        <ele>998.88501</ele>
        <time>2016-10-05T11:58:07Z</time>
      </trkpt>
      <trkpt lat="45.68459" lon="2.90332">
        <ele>998.393982</ele>
        <time>2016-10-05T11:58:26Z</time>
      </trkpt>
      <trkpt lat="45.68454" lon="2.9039">
        <ele>997.347595</ele>
        <time>2016-10-05T11:58:35Z</time>
      </trkpt>
      <trkpt lat="45.68446" lon="2.90448">
        <ele>996.184692</ele>
        <time>2016-10-05T11:58:48Z</time>
      </trkpt>
      <trkpt lat="45.68448" lon="2.90455">
        <ele>995.986328</ele>
        <time>2016-10-05T11:58:52Z</time>
      </trkpt>
      <trkpt lat="45.68454" lon="2.9047">
        <ele>995.543152</ele>
        <time>2016-10-05T12:00:32Z</time>
      </trkpt>
      <trkpt lat="45.68461" lon="2.90492">
        <ele>994.939087</ele>
        <time>2016-10-05T12:00:36Z</time>
      </trkpt>
      <trkpt lat="45.68463" lon="2.90525">
        <ele>994.359985</ele>
        <time>2016-10-05T12:00:42Z</time>
      </trkpt>
      <trkpt lat="45.68463" lon="2.9055">
        <ele>993.963745</ele>
        <time>2016-10-05T12:03:19Z</time>
      </trkpt>
      <trkpt lat="45.68462" lon="2.90561">
        <ele>993.859985</ele>
        <time>2016-10-05T12:03:23Z</time>
      </trkpt>
      <trkpt lat="45.68428" lon="2.90561">
        <ele>996.116272</ele>
        <time>2016-10-05T12:03:35Z</time>
      </trkpt>
      <trkpt lat="45.68419" lon="2.90562">
        <ele>996.735535</ele>
        <time>2016-10-05T12:03:40Z</time>
      </trkpt>
      <trkpt lat="45.68412" lon="2.90572">
        <ele>997.189819</ele>
        <time>2016-10-05T12:03:52Z</time>
      </trkpt>
      <trkpt lat="45.68403" lon="2.90613">
        <ele>996.249939</ele>
        <time>2016-10-05T12:04:51Z</time>
      </trkpt>
      <trkpt lat="45.68386" lon="2.90646">
        <ele>995.484192</ele>
        <time>2016-10-05T12:06:09Z</time>
      </trkpt>
      <trkpt lat="45.68402" lon="2.90668">
        <ele>992.87146</ele>
        <time>2016-10-05T12:06:16Z</time>
      </trkpt>
      <trkpt lat="45.68407" lon="2.90681">
        <ele>991.71521</ele>
        <time>2016-10-05T12:06:22Z</time>
      </trkpt>
      <trkpt lat="45.68402" lon="2.90697">
        <ele>990.810791</ele>
        <time>2016-10-05T12:07:17Z</time>
      </trkpt>
      <trkpt lat="45.68378" lon="2.90748">
        <ele>988.033752</ele>
        <time>2016-10-05T12:07:32Z</time>
      </trkpt>
      <trkpt lat="45.68362" lon="2.90763">
        <ele>987.58374</ele>
        <time>2016-10-05T12:08:19Z</time>
      </trkpt>
      <trkpt lat="45.68352" lon="2.90781">
        <ele>986.720032</ele>
        <time>2016-10-05T12:08:23Z</time>
      </trkpt>
      <trkpt lat="45.68332" lon="2.90828">
        <ele>984.612488</ele>
        <time>2016-10-05T12:08:32Z</time>
      </trkpt>
      <trkpt lat="45.68315" lon="2.90873">
        <ele>983.842529</ele>
        <time>2016-10-05T12:08:50Z</time>
      </trkpt>
      <trkpt lat="45.68297" lon="2.90925">
        <ele>983.794983</ele>
        <time>2016-10-05T12:11:41Z</time>
      </trkpt>
      <trkpt lat="45.68288" lon="2.90943">
        <ele>984.012512</ele>
        <time>2016-10-05T12:11:46Z</time>
      </trkpt>
      <trkpt lat="45.68276" lon="2.90956">
        <ele>984.272522</ele>
        <time>2016-10-05T12:11:53Z</time>
      </trkpt>
      <trkpt lat="45.68265" lon="2.90962">
        <ele>984.515015</ele>
        <time>2016-10-05T12:12:01Z</time>
      </trkpt>
      <trkpt lat="45.68259" lon="2.90964">
        <ele>984.650024</ele>
        <time>2016-10-05T12:15:49Z</time>
      </trkpt>
      <trkpt lat="45.68249" lon="2.91003">
        <ele>985.45874</ele>
        <time>2016-10-05T12:15:55Z</time>
      </trkpt>
      <trkpt lat="45.68246" lon="2.91009">
        <ele>985.618713</ele>
        <time>2016-10-05T12:15:57Z</time>
      </trkpt>
      <trkpt lat="45.68251" lon="2.91053">
        <ele>986.203735</ele>
        <time>2016-10-05T12:16:04Z</time>
      </trkpt>
      <trkpt lat="45.68238" lon="2.91168">
        <ele>987.27124</ele>
        <time>2016-10-05T12:16:20Z</time>
      </trkpt>
      <trkpt lat="45.68235" lon="2.91204">
        <ele>987.871277</ele>
        <time>2016-10-05T12:16:28Z</time>
      </trkpt>
      <trkpt lat="45.68232" lon="2.91276">
        <ele>989.739014</ele>
        <time>2016-10-05T12:18:27Z</time>
      </trkpt>
      <trkpt lat="45.68227" lon="2.91387">
        <ele>992.459229</ele>
        <time>2016-10-05T12:18:40Z</time>
      </trkpt>
      <trkpt lat="45.68225" lon="2.91467">
        <ele>993</ele>
        <time>2016-10-05T12:18:52Z</time>
      </trkpt>
      <trkpt lat="45.68237" lon="2.91468">
        <ele>993</ele>
        <time>2016-10-05T12:25:59Z</time>
      </trkpt>
      <trkpt lat="45.68374" lon="2.91449">
        <ele>991.544067</ele>
        <time>2016-10-05T12:26:30Z</time>
      </trkpt>
      <trkpt lat="45.68381" lon="2.91449">
        <ele>991.413757</ele>
        <time>2016-10-05T12:26:35Z</time>
      </trkpt>
      <trkpt lat="45.68381" lon="2.91456">
        <ele>991.507507</ele>
        <time>2016-10-05T12:26:40Z</time>
      </trkpt>
      <trkpt lat="45.68381" lon="2.91507">
        <ele>991.920898</ele>
        <time>2016-10-05T12:29:41Z</time>
      </trkpt>
      <trkpt lat="45.68386" lon="2.91766">
        <ele>990.734985</ele>
        <time>2016-10-05T12:30:10Z</time>
      </trkpt>
      <trkpt lat="45.68388" lon="2.91956">
        <ele>990.662476</ele>
        <time>2016-10-05T12:30:31Z</time>
      </trkpt>
      <trkpt lat="45.6839" lon="2.91966">
        <ele>990.619995</ele>
        <time>2016-10-05T12:33:03Z</time>
      </trkpt>
      <trkpt lat="45.68434" lon="2.92123">
        <ele>990.250427</ele>
        <time>2016-10-05T12:33:21Z</time>
      </trkpt>
      <trkpt lat="45.6851" lon="2.92383">
        <ele>988.84375</ele>
        <time>2016-10-05T12:33:49Z</time>
      </trkpt>
      <trkpt lat="45.68535" lon="2.92464">
        <ele>987.018738</ele>
        <time>2016-10-05T12:33:57Z</time>
      </trkpt>
      <trkpt lat="45.68622" lon="2.92766">
        <ele>975.949402</ele>
        <time>2016-10-05T12:34:35Z</time>
      </trkpt>
      <trkpt lat="45.68626" lon="2.92769">
        <ele>975.84021</ele>
        <time>2016-10-05T12:36:07Z</time>
      </trkpt>
      <trkpt lat="45.68698" lon="2.92724">
        <ele>977.101074</ele>
        <time>2016-10-05T12:36:16Z</time>
      </trkpt>
      <trkpt lat="45.68825" lon="2.92649">
        <ele>978.544983</ele>
        <time>2016-10-05T12:36:36Z</time>
      </trkpt>
      <trkpt lat="45.68844" lon="2.92639">
        <ele>978.4422</ele>
        <time>2016-10-05T12:37:52Z</time>
      </trkpt>
      <trkpt lat="45.68856" lon="2.92654">
        <ele>977.732483</ele>
        <time>2016-10-05T12:37:57Z</time>
      </trkpt>
      <trkpt lat="45.68884" lon="2.92759">
        <ele>975.140015</ele>
        <time>2016-10-05T12:38:11Z</time>
      </trkpt>
      <trkpt lat="45.68892" lon="2.92784">
        <ele>974.756226</ele>
        <time>2016-10-05T12:38:16Z</time>
      </trkpt>
      <trkpt lat="45.68901" lon="2.92803">
        <ele>974.462524</ele>
        <time>2016-10-05T12:38:27Z</time>
      </trkpt>
      <trkpt lat="45.68932" lon="2.92829">
        <ele>974.066223</ele>
        <time>2016-10-05T12:39:27Z</time>
      </trkpt>
      <trkpt lat="45.68971" lon="2.9285">
        <ele>974.140015</ele>
        <time>2016-10-05T12:39:33Z</time>
      </trkpt>
      <trkpt lat="45.69003" lon="2.92871">
        <ele>974.414978</ele>
        <time>2016-10-05T12:39:40Z</time>
      </trkpt>
      <trkpt lat="45.69013" lon="2.92884">
        <ele>974.213745</ele>
        <time>2016-10-05T12:39:46Z</time>
      </trkpt>
      <trkpt lat="45.69014" lon="2.92892">
        <ele>974.097473</ele>
        <time>2016-10-05T12:39:50Z</time>
      </trkpt>
      <trkpt lat="45.69014" lon="2.92897">
        <ele>974.01001</ele>
        <time>2016-10-05T12:43:52Z</time>
      </trkpt>
      <trkpt lat="45.69009" lon="2.92928">
        <ele>973.648254</ele>
        <time>2016-10-05T12:43:57Z</time>
      </trkpt>
      <trkpt lat="45.68985" lon="2.92988">
        <ele>972.734985</ele>
        <time>2016-10-05T12:44:06Z</time>
      </trkpt>
      <trkpt lat="45.68974" lon="2.93012">
        <ele>972.494995</ele>
        <time>2016-10-05T12:44:12Z</time>
      </trkpt>
      <trkpt lat="45.68975" lon="2.93023">
        <ele>972.5</ele>
        <time>2016-10-05T12:44:17Z</time>
      </trkpt>
      <trkpt lat="45.69063" lon="2.93181">
        <ele>976.88623</ele>
        <time>2016-10-05T12:47:24Z</time>
      </trkpt>
      <trkpt lat="45.69062" lon="2.93191">
        <ele>977.015015</ele>
        <time>2016-10-05T12:47:30Z</time>
      </trkpt>
      <trkpt lat="45.69059" lon="2.93201">
        <ele>977.117493</ele>
        <time>2016-10-05T12:49:09Z</time>
      </trkpt>
      <trkpt lat="45.69027" lon="2.93279">
        <ele>978.187988</ele>
        <time>2016-10-05T12:49:18Z</time>
      </trkpt>
      <trkpt lat="45.69008" lon="2.93322">
        <ele>980.097534</ele>
        <time>2016-10-05T12:49:22Z</time>
      </trkpt>
      <trkpt lat="45.68966" lon="2.9343">
        <ele>982.016235</ele>
        <time>2016-10-05T12:49:31Z</time>
      </trkpt>
      <trkpt lat="45.68883" lon="2.93627">
        <ele>979.090027</ele>
        <time>2016-10-05T12:49:46Z</time>
      </trkpt>
      <trkpt lat="45.68855" lon="2.937">
        <ele>977.859985</ele>
        <time>2016-10-05T12:49:52Z</time>
      </trkpt>
      <trkpt lat="45.68786" lon="2.93864">
        <ele>975.311279</ele>
        <time>2016-10-05T12:50:07Z</time>
      </trkpt>
      <trkpt lat="45.68774" lon="2.93891">
        <ele>974.630005</ele>
        <time>2016-10-05T12:50:12Z</time>
      </trkpt>
      <trkpt lat="45.68768" lon="2.93903">
        <ele>974.315002</ele>
        <time>2016-10-05T12:50:16Z</time>
      </trkpt>
      <trkpt lat="45.68767" lon="2.93903">
        <ele>974.29425</ele>
        <time>2016-10-05T12:50:19Z</time>
      </trkpt>
      <trkpt lat="45.68769" lon="2.93906">
        <ele>974.287476</ele>
        <time>2016-10-05T12:50:25Z</time>
      </trkpt>
      <trkpt lat="45.68788" lon="2.93914">
        <ele>974.60376</ele>
        <time>2016-10-05T12:52:38Z</time>
      </trkpt>
      <trkpt lat="45.6882" lon="2.93923">
        <ele>975.178345</ele>
        <time>2016-10-05T12:52:48Z</time>
      </trkpt>
      <trkpt lat="45.68868" lon="2.93942">
        <ele>975.657471</ele>
        <time>2016-10-05T12:53:05Z</time>
      </trkpt>
      <trkpt lat="45.6891" lon="2.93957">
        <ele>976.304993</ele>
        <time>2016-10-05T12:53:18Z</time>
      </trkpt>
      <trkpt lat="45.68985" lon="2.93982">
        <ele>978.91748</ele>
        <time>2016-10-05T12:53:43Z</time>
      </trkpt>
      <trkpt lat="45.69015" lon="2.93985">
        <ele>979.189392</ele>
        <time>2016-10-05T12:53:56Z</time>
      </trkpt>
      <trkpt lat="45.69027" lon="2.93988">
        <ele>979.088867</ele>
        <time>2016-10-05T12:54:05Z</time>
      </trkpt>
      <trkpt lat="45.69078" lon="2.94006">
        <ele>978.043518</ele>
        <time>2016-10-05T12:55:12Z</time>
      </trkpt>
      <trkpt lat="45.69111" lon="2.94016">
        <ele>979.828613</ele>
        <time>2016-10-05T12:55:23Z</time>
      </trkpt>
      <trkpt lat="45.69194" lon="2.94044">
        <ele>989.874634</ele>
        <time>2016-10-05T12:56:58Z</time>
      </trkpt>
      <trkpt lat="45.69227" lon="2.94057">
        <ele>992.656189</ele>
        <time>2016-10-05T12:57:09Z</time>
      </trkpt>
      <trkpt lat="45.69241" lon="2.94062">
        <ele>994.076477</ele>
        <time>2016-10-05T12:57:14Z</time>
      </trkpt>
      <trkpt lat="45.69264" lon="2.94064">
        <ele>995.439697</ele>
        <time>2016-10-05T12:57:20Z</time>
      </trkpt>
      <trkpt lat="45.6928" lon="2.94063">
        <ele>995.008789</ele>
        <time>2016-10-05T12:57:25Z</time>
      </trkpt>
      <trkpt lat="45.693" lon="2.94065">
        <ele>995.769287</ele>
        <time>2016-10-05T12:57:30Z</time>
      </trkpt>
      <trkpt lat="45.69329" lon="2.94071">
        <ele>997.481689</ele>
        <time>2016-10-05T12:57:40Z</time>
      </trkpt>
      <trkpt lat="45.69354" lon="2.94069">
        <ele>996.788025</ele>
        <time>2016-10-05T12:57:53Z</time>
      </trkpt>
      <trkpt lat="45.69371" lon="2.94074">
        <ele>997.921265</ele>
        <time>2016-10-05T12:58:02Z</time>
      </trkpt>
      <trkpt lat="45.69407" lon="2.94089">
        <ele>999.675842</ele>
        <time>2016-10-05T12:58:29Z</time>
      </trkpt>
      <trkpt lat="45.69429" lon="2.94095">
        <ele>1000.445679</ele>
        <time>2016-10-05T12:58:35Z</time>
      </trkpt>
      <trkpt lat="45.69463" lon="2.94101">
        <ele>1000.035645</ele>
        <time>2016-10-05T12:58:55Z</time>
      </trkpt>
      <trkpt lat="45.69469" lon="2.94103">
        <ele>999.761414</ele>
        <time>2016-10-05T13:02:41Z</time>
      </trkpt>
      <trkpt lat="45.6948" lon="2.94101">
        <ele>999.52301</ele>
        <time>2016-10-05T13:02:47Z</time>
      </trkpt>
      <trkpt lat="45.69531" lon="2.94122">
        <ele>999.087524</ele>
        <time>2016-10-05T13:03:01Z</time>
      </trkpt>
      <trkpt lat="45.69547" lon="2.94126">
        <ele>999.541931</ele>
        <time>2016-10-05T13:03:06Z</time>
      </trkpt>
      <trkpt lat="45.69568" lon="2.94125">
        <ele>999.873169</ele>
        <time>2016-10-05T13:03:12Z</time>
      </trkpt>
      <trkpt lat="45.69588" lon="2.94126">
        <ele>1000.335327</ele>
        <time>2016-10-05T13:03:18Z</time>
      </trkpt>
      <trkpt lat="45.69611" lon="2.9413">
        <ele>1000.822205</ele>
        <time>2016-10-05T13:03:25Z</time>
      </trkpt>
      <trkpt lat="45.69659" lon="2.9414">
        <ele>1002.485229</ele>
        <time>2016-10-05T13:03:38Z</time>
      </trkpt>
      <trkpt lat="45.69756" lon="2.94148">
        <ele>1008.320007</ele>
        <time>2016-10-05T13:04:14Z</time>
      </trkpt>
      <trkpt lat="45.69775" lon="2.94145">
        <ele>1009.262512</ele>
        <time>2016-10-05T13:05:56Z</time>
      </trkpt>
      <trkpt lat="45.69789" lon="2.94139">
        <ele>1010.05249</ele>
        <time>2016-10-05T13:06:02Z</time>
      </trkpt>
      <trkpt lat="45.6982" lon="2.94122">
        <ele>1012.709717</ele>
        <time>2016-10-05T13:07:35Z</time>
      </trkpt>
      <trkpt lat="45.69854" lon="2.94106">
        <ele>1016.765625</ele>
        <time>2016-10-05T13:08:04Z</time>
      </trkpt>
      <trkpt lat="45.69878" lon="2.94102">
        <ele>1019.354309</ele>
        <time>2016-10-05T13:08:20Z</time>
      </trkpt>
      <trkpt lat="45.69945" lon="2.94101">
        <ele>1024.977051</ele>
        <time>2016-10-05T13:10:21Z</time>
      </trkpt>
      <trkpt lat="45.69972" lon="2.94096">
        <ele>1026.226929</ele>
        <time>2016-10-05T13:10:27Z</time>
      </trkpt>
      <trkpt lat="45.69995" lon="2.94089">
        <ele>1026.848755</ele>
        <time>2016-10-05T13:10:33Z</time>
      </trkpt>
      <trkpt lat="45.70043" lon="2.94081">
        <ele>1026.960327</ele>
        <time>2016-10-05T13:10:45Z</time>
      </trkpt>
      <trkpt lat="45.70064" lon="2.94074">
        <ele>1026.858643</ele>
        <time>2016-10-05T13:10:51Z</time>
      </trkpt>
      <trkpt lat="45.70083" lon="2.94061">
        <ele>1027.257568</ele>
        <time>2016-10-05T13:10:57Z</time>
      </trkpt>
      <trkpt lat="45.70124" lon="2.9403">
        <ele>1028.631958</ele>
        <time>2016-10-05T13:11:10Z</time>
      </trkpt>
      <trkpt lat="45.70158" lon="2.94002">
        <ele>1029.071899</ele>
        <time>2016-10-05T13:12:03Z</time>
      </trkpt>
      <trkpt lat="45.70184" lon="2.93974">
        <ele>1030.748779</ele>
        <time>2016-10-05T13:12:13Z</time>
      </trkpt>
      <trkpt lat="45.70201" lon="2.93938">
        <ele>1030.878784</ele>
        <time>2016-10-05T13:12:21Z</time>
      </trkpt>
      <trkpt lat="45.70219" lon="2.93894">
        <ele>1031.538696</ele>
        <time>2016-10-05T13:12:30Z</time>
      </trkpt>
      <trkpt lat="45.70238" lon="2.93865">
        <ele>1032.024292</ele>
        <time>2016-10-05T13:12:37Z</time>
      </trkpt>
      <trkpt lat="45.70253" lon="2.9385">
        <ele>1032.802979</ele>
        <time>2016-10-05T13:12:43Z</time>
      </trkpt>
      <trkpt lat="45.7027" lon="2.93838">
        <ele>1033.694092</ele>
        <time>2016-10-05T13:12:50Z</time>
      </trkpt>
      <trkpt lat="45.70284" lon="2.9383">
        <ele>1034.322998</ele>
        <time>2016-10-05T13:12:58Z</time>
      </trkpt>
      <trkpt lat="45.70296" lon="2.93827">
        <ele>1034.713745</ele>
        <time>2016-10-05T13:13:56Z</time>
      </trkpt>
      <trkpt lat="45.70314" lon="2.93824">
        <ele>1035.537476</ele>
        <time>2016-10-05T13:14:00Z</time>
      </trkpt>
      <trkpt lat="45.70333" lon="2.93823">
        <ele>1036.400024</ele>
        <time>2016-10-05T13:14:04Z</time>
      </trkpt>
      <trkpt lat="45.70376" lon="2.93822">
        <ele>1038.579712</ele>
        <time>2016-10-05T13:14:13Z</time>
      </trkpt>
      <trkpt lat="45.70421" lon="2.93825">
        <ele>1042.325073</ele>
        <time>2016-10-05T13:14:22Z</time>
      </trkpt>
      <trkpt lat="45.70455" lon="2.9383">
        <ele>1044.07251</ele>
        <time>2016-10-05T13:14:32Z</time>
      </trkpt>
      <trkpt lat="45.70489" lon="2.93837">
        <ele>1044.854126</ele>
        <time>2016-10-05T13:14:43Z</time>
      </trkpt>
      <trkpt lat="45.70513" lon="2.93839">
        <ele>1045.138428</ele>
        <time>2016-10-05T13:14:49Z</time>
      </trkpt>
      <trkpt lat="45.70537" lon="2.93832">
        <ele>1045.209961</ele>
        <time>2016-10-05T13:14:56Z</time>
      </trkpt>
      <trkpt lat="45.70561" lon="2.93829">
        <ele>1045.567505</ele>
        <time>2016-10-05T13:15:06Z</time>
      </trkpt>
      <trkpt lat="45.70642" lon="2.93836">
        <ele>1048.436401</ele>
        <time>2016-10-05T13:15:28Z</time>
      </trkpt>
      <trkpt lat="45.70686" lon="2.93846">
        <ele>1048.654541</ele>
        <time>2016-10-05T13:15:50Z</time>
      </trkpt>
      <trkpt lat="45.70709" lon="2.93857">
        <ele>1048.609619</ele>
        <time>2016-10-05T13:16:45Z</time>
      </trkpt>
      <trkpt lat="45.70714" lon="2.93867">
        <ele>1048.645752</ele>
        <time>2016-10-05T13:17:10Z</time>
      </trkpt>
      <trkpt lat="45.70812" lon="2.94005">
        <ele>1048.502197</ele>
        <time>2016-10-05T13:18:57Z</time>
      </trkpt>
      <trkpt lat="45.70838" lon="2.94038">
        <ele>1048.878174</ele>
        <time>2016-10-05T13:19:04Z</time>
      </trkpt>
      <trkpt lat="45.70881" lon="2.94077">
        <ele>1049.098389</ele>
        <time>2016-10-05T13:19:13Z</time>
      </trkpt>
      <trkpt lat="45.70912" lon="2.94112">
        <ele>1048.684326</ele>
        <time>2016-10-05T13:19:20Z</time>
      </trkpt>
      <trkpt lat="45.70939" lon="2.9416">
        <ele>1047.581055</ele>
        <time>2016-10-05T13:19:27Z</time>
      </trkpt>
      <trkpt lat="45.70952" lon="2.94184">
        <ele>1046.975708</ele>
        <time>2016-10-05T13:19:30Z</time>
      </trkpt>
      <trkpt lat="45.71" lon="2.94237">
        <ele>1045.481201</ele>
        <time>2016-10-05T13:19:39Z</time>
      </trkpt>
      <trkpt lat="45.71015" lon="2.9425">
        <ele>1045.283691</ele>
        <time>2016-10-05T13:19:42Z</time>
      </trkpt>
      <trkpt lat="45.7103" lon="2.9427">
        <ele>1045.349976</ele>
        <time>2016-10-05T13:19:46Z</time>
      </trkpt>
      <trkpt lat="45.71042" lon="2.94291">
        <ele>1045.599976</ele>
        <time>2016-10-05T13:19:51Z</time>
      </trkpt>
      <trkpt lat="45.71048" lon="2.94297">
        <ele>1045.752441</ele>
        <time>2016-10-05T13:19:56Z</time>
      </trkpt>
      <trkpt lat="45.71077" lon="2.94252">
        <ele>1046.288208</ele>
        <time>2016-10-05T13:21:12Z</time>
      </trkpt>
      <trkpt lat="45.71095" lon="2.94221">
        <ele>1046.202393</ele>
        <time>2016-10-05T13:21:28Z</time>
      </trkpt>
      <trkpt lat="45.71152" lon="2.94115">
        <ele>1046.206665</ele>
        <time>2016-10-05T13:21:52Z</time>
      </trkpt>
      <trkpt lat="45.71184" lon="2.94048">
        <ele>1044.817505</ele>
        <time>2016-10-05T13:22:06Z</time>
      </trkpt>
      <trkpt lat="45.71197" lon="2.94022">
        <ele>1044.358521</ele>
        <time>2016-10-05T13:22:14Z</time>
      </trkpt>
      <trkpt lat="45.71208" lon="2.94004">
        <ele>1044.361694</ele>
        <time>2016-10-05T13:22:21Z</time>
      </trkpt>
      <trkpt lat="45.7121" lon="2.93999">
        <ele>1044.180054</ele>
        <time>2016-10-05T13:22:26Z</time>
      </trkpt>
      <trkpt lat="45.71205" lon="2.93864">
        <ele>1044.913696</ele>
        <time>2016-10-05T13:24:52Z</time>
      </trkpt>
      <trkpt lat="45.71195" lon="2.93818">
        <ele>1048.682983</ele>
        <time>2016-10-05T13:25:15Z</time>
      </trkpt>
      <trkpt lat="45.71208" lon="2.93794">
        <ele>1050.318237</ele>
        <time>2016-10-05T13:25:35Z</time>
      </trkpt>
      <trkpt lat="45.7124" lon="2.9376">
        <ele>1049.192017</ele>
        <time>2016-10-05T13:26:31Z</time>
      </trkpt>
      <trkpt lat="45.71279" lon="2.93713">
        <ele>1047.069946</ele>
        <time>2016-10-05T13:26:46Z</time>
      </trkpt>
      <trkpt lat="45.71295" lon="2.93688">
        <ele>1044.842407</ele>
        <time>2016-10-05T13:26:52Z</time>
      </trkpt>
      <trkpt lat="45.7131" lon="2.93657">
        <ele>1042.611938</ele>
        <time>2016-10-05T13:27:00Z</time>
      </trkpt>
      <trkpt lat="45.71334" lon="2.93603">
        <ele>1038.755127</ele>
        <time>2016-10-05T13:27:18Z</time>
      </trkpt>
      <trkpt lat="45.7138" lon="2.93492">
        <ele>1031.442505</ele>
        <time>2016-10-05T13:31:11Z</time>
      </trkpt>
      <trkpt lat="45.71388" lon="2.93464">
        <ele>1029.298828</ele>
        <time>2016-10-05T13:31:16Z</time>
      </trkpt>
      <trkpt lat="45.7139" lon="2.93438">
        <ele>1027.84021</ele>
        <time>2016-10-05T13:31:20Z</time>
      </trkpt>
      <trkpt lat="45.71392" lon="2.93366">
        <ele>1022.20105</ele>
        <time>2016-10-05T13:31:37Z</time>
      </trkpt>
      <trkpt lat="45.71394" lon="2.93269">
        <ele>1017.138611</ele>
        <time>2016-10-05T13:32:00Z</time>
      </trkpt>
      <trkpt lat="45.71392" lon="2.93246">
        <ele>1015.531799</ele>
        <time>2016-10-05T13:32:04Z</time>
      </trkpt>
      <trkpt lat="45.71384" lon="2.93179">
        <ele>1010.649963</ele>
        <time>2016-10-05T13:32:19Z</time>
      </trkpt>
      <trkpt lat="45.71375" lon="2.93068">
        <ele>1005.993958</ele>
        <time>2016-10-05T13:32:53Z</time>
      </trkpt>
      <trkpt lat="45.71373" lon="2.93053">
        <ele>1005.603333</ele>
        <time>2016-10-05T13:33:45Z</time>
      </trkpt>
      <trkpt lat="45.71364" lon="2.93011">
        <ele>1004.482483</ele>
        <time>2016-10-05T13:33:52Z</time>
      </trkpt>
      <trkpt lat="45.7133" lon="2.929">
        <ele>1000.875671</ele>
        <time>2016-10-05T13:34:16Z</time>
      </trkpt>
      <trkpt lat="45.71322" lon="2.92877">
        <ele>1000.565308</ele>
        <time>2016-10-05T13:34:21Z</time>
      </trkpt>
      <trkpt lat="45.71288" lon="2.9279">
        <ele>994.824707</ele>
        <time>2016-10-05T13:34:41Z</time>
      </trkpt>
      <trkpt lat="45.71272" lon="2.92769">
        <ele>993.093994</ele>
        <time>2016-10-05T13:34:46Z</time>
      </trkpt>
      <trkpt lat="45.71259" lon="2.92769">
        <ele>993.63092</ele>
        <time>2016-10-05T13:34:52Z</time>
      </trkpt>
      <trkpt lat="45.71246" lon="2.92766">
        <ele>993.81311</ele>
        <time>2016-10-05T13:35:07Z</time>
      </trkpt>
      <trkpt lat="45.71219" lon="2.92755">
        <ele>994.933411</ele>
        <time>2016-10-05T13:36:42Z</time>
      </trkpt>
      <trkpt lat="45.71159" lon="2.92728">
        <ele>997.84314</ele>
        <time>2016-10-05T13:36:56Z</time>
      </trkpt>
      <trkpt lat="45.71113" lon="2.92703">
        <ele>999.543457</ele>
        <time>2016-10-05T13:37:14Z</time>
      </trkpt>
      <trkpt lat="45.71115" lon="2.92684">
        <ele>996.78009</ele>
        <time>2016-10-05T13:37:19Z</time>
      </trkpt>
      <trkpt lat="45.71119" lon="2.92663">
        <ele>993.720459</ele>
        <time>2016-10-05T13:44:18Z</time>
      </trkpt>
      <trkpt lat="45.71126" lon="2.92621">
        <ele>993.139648</ele>
        <time>2016-10-05T13:44:24Z</time>
      </trkpt>
      <trkpt lat="45.71132" lon="2.92599">
        <ele>993</ele>
        <time>2016-10-05T13:44:29Z</time>
      </trkpt>
      <trkpt lat="45.71137" lon="2.92564">
        <ele>993</ele>
        <time>2016-10-05T13:44:34Z</time>
      </trkpt>
      <trkpt lat="45.71142" lon="2.92526">
        <ele>992.746887</ele>
        <time>2016-10-05T13:44:39Z</time>
      </trkpt>
      <trkpt lat="45.71135" lon="2.92485">
        <ele>991.85144</ele>
        <time>2016-10-05T13:44:44Z</time>
      </trkpt>
      <trkpt lat="45.71111" lon="2.92421">
        <ele>991.436646</ele>
        <time>2016-10-05T13:44:51Z</time>
      </trkpt>
      <trkpt lat="45.71094" lon="2.92371">
        <ele>991.798462</ele>
        <time>2016-10-05T13:44:57Z</time>
      </trkpt>
      <trkpt lat="45.71091" lon="2.92364">
        <ele>991.987732</ele>
        <time>2016-10-05T13:44:58Z</time>
      </trkpt>
      <trkpt lat="45.71087" lon="2.92328">
        <ele>991.989319</ele>
        <time>2016-10-05T13:45:03Z</time>
      </trkpt>
      <trkpt lat="45.71094" lon="2.92278">
        <ele>990.887207</ele>
        <time>2016-10-05T13:45:09Z</time>
      </trkpt>
      <trkpt lat="45.71096" lon="2.92248">
        <ele>990.070435</ele>
        <time>2016-10-05T13:45:12Z</time>
      </trkpt>
      <trkpt lat="45.71093" lon="2.92212">
        <ele>990.081421</ele>
        <time>2016-10-05T13:45:17Z</time>
      </trkpt>
      <trkpt lat="45.71077" lon="2.92127">
        <ele>991.794495</ele>
        <time>2016-10-05T13:45:32Z</time>
      </trkpt>
      <trkpt lat="45.71074" lon="2.92106">
        <ele>991.974792</ele>
        <time>2016-10-05T13:45:35Z</time>
      </trkpt>
      <trkpt lat="45.71064" lon="2.92074">
        <ele>992.747314</ele>
        <time>2016-10-05T13:45:41Z</time>
      </trkpt>
      <trkpt lat="45.71037" lon="2.92028">
        <ele>994.602112</ele>
        <time>2016-10-05T13:45:57Z</time>
      </trkpt>
      <trkpt lat="45.71031" lon="2.92017">
        <ele>994.812012</ele>
        <time>2016-10-05T13:56:53Z</time>
      </trkpt>
      <trkpt lat="45.71023" lon="2.9199">
        <ele>995.129395</ele>
        <time>2016-10-05T13:56:59Z</time>
      </trkpt>
      <trkpt lat="45.71015" lon="2.91952">
        <ele>995.13147</ele>
        <time>2016-10-05T13:57:06Z</time>
      </trkpt>
      <trkpt lat="45.70977" lon="2.91874">
        <ele>992.656982</ele>
        <time>2016-10-05T13:57:21Z</time>
      </trkpt>
      <trkpt lat="45.70967" lon="2.9185">
        <ele>992.179932</ele>
        <time>2016-10-05T13:57:25Z</time>
      </trkpt>
      <trkpt lat="45.70951" lon="2.91699">
        <ele>987.726074</ele>
        <time>2016-10-05T13:57:52Z</time>
      </trkpt>
      <trkpt lat="45.7094" lon="2.91623">
        <ele>983.887512</ele>
        <time>2016-10-05T13:58:15Z</time>
      </trkpt>
      <trkpt lat="45.7093" lon="2.91539">
        <ele>976.492249</ele>
        <time>2016-10-05T13:58:29Z</time>
      </trkpt>
      <trkpt lat="45.7093" lon="2.91516">
        <ele>974.212708</ele>
        <time>2016-10-05T13:58:34Z</time>
      </trkpt>
      <trkpt lat="45.70932" lon="2.91511">
        <ele>973.62323</ele>
        <time>2016-10-05T13:58:38Z</time>
      </trkpt>
      <trkpt lat="45.70946" lon="2.915">
        <ele>972.2052</ele>
        <time>2016-10-05T14:02:25Z</time>
      </trkpt>
      <trkpt lat="45.70949" lon="2.91486">
        <ele>970.794678</ele>
        <time>2016-10-05T14:02:29Z</time>
      </trkpt>
      <trkpt lat="45.70943" lon="2.91474">
        <ele>969.920166</ele>
        <time>2016-10-05T14:02:32Z</time>
      </trkpt>
      <trkpt lat="45.70935" lon="2.91468">
        <ele>969.362671</ele>
        <time>2016-10-05T14:02:34Z</time>
      </trkpt>
      <trkpt lat="45.70895" lon="2.91462">
        <ele>967.221069</ele>
        <time>2016-10-05T14:02:41Z</time>
      </trkpt>
      <trkpt lat="45.70871" lon="2.91463">
        <ele>967.122925</ele>
        <time>2016-10-05T14:02:45Z</time>
      </trkpt>
      <trkpt lat="45.70848" lon="2.91457">
        <ele>965.571655</ele>
        <time>2016-10-05T14:02:49Z</time>
      </trkpt>
      <trkpt lat="45.70831" lon="2.91445">
        <ele>962.672302</ele>
        <time>2016-10-05T14:02:52Z</time>
      </trkpt>
      <trkpt lat="45.70821" lon="2.91434">
        <ele>960.143311</ele>
        <time>2016-10-05T14:02:55Z</time>
      </trkpt>
      <trkpt lat="45.70783" lon="2.91408">
        <ele>954.768127</ele>
        <time>2016-10-05T14:03:01Z</time>
      </trkpt>
      <trkpt lat="45.70727" lon="2.91396">
        <ele>951.668701</ele>
        <time>2016-10-05T14:03:09Z</time>
      </trkpt>
      <trkpt lat="45.70699" lon="2.9138">
        <ele>947.217773</ele>
        <time>2016-10-05T14:03:14Z</time>
      </trkpt>
      <trkpt lat="45.70686" lon="2.9137">
        <ele>944.738098</ele>
        <time>2016-10-05T14:03:17Z</time>
      </trkpt>
      <trkpt lat="45.70659" lon="2.91361">
        <ele>941.893433</ele>
        <time>2016-10-05T14:03:23Z</time>
      </trkpt>
      <trkpt lat="45.70632" lon="2.9136">
        <ele>940.329102</ele>
        <time>2016-10-05T14:03:29Z</time>
      </trkpt>
      <trkpt lat="45.70624" lon="2.91357">
        <ele>939.517273</ele>
        <time>2016-10-05T14:03:33Z</time>
      </trkpt>
      <trkpt lat="45.70611" lon="2.9135">
        <ele>938.066956</ele>
        <time>2016-10-05T14:06:10Z</time>
      </trkpt>
      <trkpt lat="45.70617" lon="2.91341">
        <ele>937.112305</ele>
        <time>2016-10-05T14:06:15Z</time>
      </trkpt>
      <trkpt lat="45.70669" lon="2.91333">
        <ele>937.134216</ele>
        <time>2016-10-05T14:06:25Z</time>
      </trkpt>
      <trkpt lat="45.70686" lon="2.91327">
        <ele>936.50238</ele>
        <time>2016-10-05T14:06:29Z</time>
      </trkpt>
      <trkpt lat="45.70702" lon="2.91317">
        <ele>934.898804</ele>
        <time>2016-10-05T14:10:15Z</time>
      </trkpt>
      <trkpt lat="45.70733" lon="2.91328">
        <ele>938.150391</ele>
        <time>2016-10-05T14:10:21Z</time>
      </trkpt>
      <trkpt lat="45.70783" lon="2.91329">
        <ele>941.127625</ele>
        <time>2016-10-05T14:12:02Z</time>
      </trkpt>
      <trkpt lat="45.7079" lon="2.91328">
        <ele>941.646667</ele>
        <time>2016-10-05T14:12:04Z</time>
      </trkpt>
      <trkpt lat="45.7082" lon="2.91313">
        <ele>941.720032</ele>
        <time>2016-10-05T14:12:10Z</time>
      </trkpt>
      <trkpt lat="45.70838" lon="2.91305">
        <ele>941.41626</ele>
        <time>2016-10-05T14:12:14Z</time>
      </trkpt>
      <trkpt lat="45.70893" lon="2.9129">
        <ele>942.335999</ele>
        <time>2016-10-05T14:12:25Z</time>
      </trkpt>
      <trkpt lat="45.70921" lon="2.91291">
        <ele>943.798279</ele>
        <time>2016-10-05T14:12:31Z</time>
      </trkpt>
      <trkpt lat="45.70944" lon="2.91297">
        <ele>945.846436</ele>
        <time>2016-10-05T14:12:37Z</time>
      </trkpt>
      <trkpt lat="45.70951" lon="2.913">
        <ele>946.61322</ele>
        <time>2016-10-05T14:12:39Z</time>
      </trkpt>
      <trkpt lat="45.70959" lon="2.91305">
        <ele>947.638794</ele>
        <time>2016-10-05T14:12:41Z</time>
      </trkpt>
      <trkpt lat="45.71002" lon="2.91338">
        <ele>954.128174</ele>
        <time>2016-10-05T14:13:06Z</time>
      </trkpt>
      <trkpt lat="45.71017" lon="2.91345">
        <ele>954.994263</ele>
        <time>2016-10-05T14:13:12Z</time>
      </trkpt>
      <trkpt lat="45.71037" lon="2.91349">
        <ele>954.877258</ele>
        <time>2016-10-05T14:13:19Z</time>
      </trkpt>
      <trkpt lat="45.71059" lon="2.9135">
        <ele>953.760864</ele>
        <time>2016-10-05T14:15:12Z</time>
      </trkpt>
      <trkpt lat="45.71084" lon="2.9135">
        <ele>951.928711</ele>
        <time>2016-10-05T14:15:17Z</time>
      </trkpt>
      <trkpt lat="45.71095" lon="2.91357">
        <ele>951.592896</ele>
        <time>2016-10-05T14:15:19Z</time>
      </trkpt>
      <trkpt lat="45.71123" lon="2.9141">
        <ele>953.808777</ele>
        <time>2016-10-05T14:15:28Z</time>
      </trkpt>
      <trkpt lat="45.71137" lon="2.9144">
        <ele>954.736267</ele>
        <time>2016-10-05T14:15:32Z</time>
      </trkpt>
      <trkpt lat="45.71162" lon="2.91476">
        <ele>956.746216</ele>
        <time>2016-10-05T14:15:37Z</time>
      </trkpt>
      <trkpt lat="45.7119" lon="2.91508">
        <ele>960.202087</ele>
        <time>2016-10-05T14:15:43Z</time>
      </trkpt>
      <trkpt lat="45.71212" lon="2.91527">
        <ele>960.764587</ele>
        <time>2016-10-05T14:15:49Z</time>
      </trkpt>
      <trkpt lat="45.71234" lon="2.91542">
        <ele>960.914063</ele>
        <time>2016-10-05T14:15:55Z</time>
      </trkpt>
      <trkpt lat="45.71265" lon="2.9156">
        <ele>961.670837</ele>
        <time>2016-10-05T14:16:01Z</time>
      </trkpt>
      <trkpt lat="45.71298" lon="2.91576">
        <ele>963.168762</ele>
        <time>2016-10-05T14:16:08Z</time>
      </trkpt>
      <trkpt lat="45.71306" lon="2.91578">
        <ele>962.684387</ele>
        <time>2016-10-05T14:16:11Z</time>
      </trkpt>
      <trkpt lat="45.71384" lon="2.91593">
        <ele>957.703735</ele>
        <time>2016-10-05T14:16:36Z</time>
      </trkpt>
      <trkpt lat="45.71406" lon="2.91591">
        <ele>957.032288</ele>
        <time>2016-10-05T14:17:53Z</time>
      </trkpt>
      <trkpt lat="45.71411" lon="2.91593">
        <ele>957.085022</ele>
        <time>2016-10-05T14:24:32Z</time>
      </trkpt>
      <trkpt lat="45.7143" lon="2.91583">
        <ele>956.373474</ele>
        <time>2016-10-05T14:24:37Z</time>
      </trkpt>
      <trkpt lat="45.71451" lon="2.91588">
        <ele>955.734497</ele>
        <time>2016-10-05T14:24:41Z</time>
      </trkpt>
      <trkpt lat="45.71456" lon="2.91592">
        <ele>955.616272</ele>
        <time>2016-10-05T14:24:42Z</time>
      </trkpt>
      <trkpt lat="45.71475" lon="2.91601">
        <ele>955.010803</ele>
        <time>2016-10-05T14:24:46Z</time>
      </trkpt>
      <trkpt lat="45.71483" lon="2.91603">
        <ele>954.614868</ele>
        <time>2016-10-05T14:24:52Z</time>
      </trkpt>
      <trkpt lat="45.71485" lon="2.91583">
        <ele>953.927551</ele>
        <time>2016-10-05T14:25:00Z</time>
      </trkpt>
      <trkpt lat="45.71489" lon="2.91517">
        <ele>950.272583</ele>
        <time>2016-10-05T14:26:51Z</time>
      </trkpt>
      <trkpt lat="45.71488" lon="2.9152">
        <ele>950.474365</ele>
        <time>2016-10-05T14:27:10Z</time>
      </trkpt>
      <trkpt lat="45.71496" lon="2.91517">
        <ele>950.279419</ele>
        <time>2016-10-05T14:29:19Z</time>
      </trkpt>
      <trkpt lat="45.71579" lon="2.91496">
        <ele>948.508728</ele>
        <time>2016-10-05T14:29:34Z</time>
      </trkpt>
      <trkpt lat="45.7162" lon="2.91488">
        <ele>947.41571</ele>
        <time>2016-10-05T14:29:40Z</time>
      </trkpt>
      <trkpt lat="45.71692" lon="2.91471">
        <ele>945.267517</ele>
        <time>2016-10-05T14:29:48Z</time>
      </trkpt>
      <trkpt lat="45.71722" lon="2.91466">
        <ele>944.295105</ele>
        <time>2016-10-05T14:29:58Z</time>
      </trkpt>
      <trkpt lat="45.71725" lon="2.91391">
        <ele>943.602783</ele>
        <time>2016-10-05T14:30:57Z</time>
      </trkpt>
      <trkpt lat="45.71725" lon="2.91207">
        <ele>937.442505</ele>
        <time>2016-10-05T14:32:59Z</time>
      </trkpt>
      <trkpt lat="45.71727" lon="2.91105">
        <ele>933.945007</ele>
        <time>2016-10-05T14:33:10Z</time>
      </trkpt>
      <trkpt lat="45.71727" lon="2.91073">
        <ele>932.496277</ele>
        <time>2016-10-05T14:33:14Z</time>
      </trkpt>
      <trkpt lat="45.71725" lon="2.91033">
        <ele>929.882996</ele>
        <time>2016-10-05T14:33:20Z</time>
      </trkpt>
      <trkpt lat="45.71709" lon="2.90932">
        <ele>921.622437</ele>
        <time>2016-10-05T14:33:31Z</time>
      </trkpt>
      <trkpt lat="45.71709" lon="2.90872">
        <ele>916.936523</ele>
        <time>2016-10-05T14:33:36Z</time>
      </trkpt>
      <trkpt lat="45.71714" lon="2.90807">
        <ele>909.811523</ele>
        <time>2016-10-05T14:33:42Z</time>
      </trkpt>
      <trkpt lat="45.71725" lon="2.90713">
        <ele>903.119995</ele>
        <time>2016-10-05T14:33:54Z</time>
      </trkpt>
      <trkpt lat="45.71716" lon="2.907">
        <ele>901.912476</ele>
        <time>2016-10-05T14:34:03Z</time>
      </trkpt>
      <trkpt lat="45.7166" lon="2.90671">
        <ele>898.475281</ele>
        <time>2016-10-05T14:37:44Z</time>
      </trkpt>
      <trkpt lat="45.71655" lon="2.90663">
        <ele>896.762329</ele>
        <time>2016-10-05T14:37:50Z</time>
      </trkpt>
      <trkpt lat="45.71665" lon="2.90649">
        <ele>894.368958</ele>
        <time>2016-10-05T14:45:17Z</time>
      </trkpt>
      <trkpt lat="45.7168" lon="2.9064">
        <ele>892.440369</ele>
        <time>2016-10-05T14:45:22Z</time>
      </trkpt>
      <trkpt lat="45.71723" lon="2.90628">
        <ele>889.369324</ele>
        <time>2016-10-05T14:45:37Z</time>
      </trkpt>
      <trkpt lat="45.71723" lon="2.90619">
        <ele>887.407898</ele>
        <time>2016-10-05T14:46:35Z</time>
      </trkpt>
      <trkpt lat="45.71715" lon="2.90609">
        <ele>886.198914</ele>
        <time>2016-10-05T14:46:38Z</time>
      </trkpt>
      <trkpt lat="45.71696" lon="2.90596">
        <ele>885.272522</ele>
        <time>2016-10-05T14:46:45Z</time>
      </trkpt>
      <trkpt lat="45.71686" lon="2.90588">
        <ele>884.628784</ele>
        <time>2016-10-05T14:47:33Z</time>
      </trkpt>
      <trkpt lat="45.71653" lon="2.90586">
        <ele>884.95575</ele>
        <time>2016-10-05T14:47:39Z</time>
      </trkpt>
      <trkpt lat="45.71642" lon="2.90573">
        <ele>883.835327</ele>
        <time>2016-10-05T14:47:46Z</time>
      </trkpt>
      <trkpt lat="45.71636" lon="2.90556">
        <ele>882.174866</ele>
        <time>2016-10-05T14:48:20Z</time>
      </trkpt>
      <trkpt lat="45.71626" lon="2.90502">
        <ele>879.61377</ele>
        <time>2016-10-05T14:48:29Z</time>
      </trkpt>
      <trkpt lat="45.71622" lon="2.90491">
        <ele>879.157471</ele>
        <time>2016-10-05T14:48:33Z</time>
      </trkpt>
      <trkpt lat="45.71617" lon="2.90483">
        <ele>878.840515</ele>
        <time>2016-10-05T14:48:38Z</time>
      </trkpt>
      <trkpt lat="45.71614" lon="2.90453">
        <ele>877.438904</ele>
        <time>2016-10-05T14:48:43Z</time>
      </trkpt>
      <trkpt lat="45.71611" lon="2.9043">
        <ele>876.361145</ele>
        <time>2016-10-05T14:49:30Z</time>
      </trkpt>
      <trkpt lat="45.71598" lon="2.90429">
        <ele>876.2901</ele>
        <time>2016-10-05T14:49:37Z</time>
      </trkpt>
      <trkpt lat="45.71588" lon="2.90398">
        <ele>875.282471</ele>
        <time>2016-10-05T14:50:46Z</time>
      </trkpt>
      <trkpt lat="45.71592" lon="2.90378">
        <ele>874.650024</ele>
        <time>2016-10-05T14:50:52Z</time>
      </trkpt>
      <trkpt lat="45.71625" lon="2.90359">
        <ele>874.0625</ele>
        <time>2016-10-05T14:52:26Z</time>
      </trkpt>
      <trkpt lat="45.7162" lon="2.90346">
        <ele>874</ele>
        <time>2016-10-05T14:52:33Z</time>
      </trkpt>
      <trkpt lat="45.71606" lon="2.90327">
        <ele>874</ele>
        <time>2016-10-05T14:52:40Z</time>
      </trkpt>
      <trkpt lat="45.71599" lon="2.90313">
        <ele>874</ele>
        <time>2016-10-05T14:52:47Z</time>
      </trkpt>
      <trkpt lat="45.71588" lon="2.90271">
        <ele>874.573669</ele>
        <time>2016-10-05T14:52:54Z</time>
      </trkpt>
      <trkpt lat="45.71583" lon="2.90244">
        <ele>875.402588</ele>
        <time>2016-10-05T14:53:01Z</time>
      </trkpt>
      <trkpt lat="45.71579" lon="2.90216">
        <ele>876.534485</ele>
        <time>2016-10-05T14:53:10Z</time>
      </trkpt>
      <trkpt lat="45.71579" lon="2.90209">
        <ele>876.881348</ele>
        <time>2016-10-05T14:53:14Z</time>
      </trkpt>
      <trkpt lat="45.71564" lon="2.90194">
        <ele>877.739624</ele>
        <time>2016-10-05T14:53:19Z</time>
      </trkpt>
      <trkpt lat="45.71547" lon="2.90195">
        <ele>877.862488</ele>
        <time>2016-10-05T14:54:24Z</time>
      </trkpt>
      <trkpt lat="45.71533" lon="2.90198">
        <ele>877.911011</ele>
        <time>2016-10-05T14:54:32Z</time>
      </trkpt>
      <trkpt lat="45.71525" lon="2.90188">
        <ele>878.433228</ele>
        <time>2016-10-05T14:55:47Z</time>
      </trkpt>
      <trkpt lat="45.71512" lon="2.90153">
        <ele>879.76001</ele>
        <time>2016-10-05T14:55:54Z</time>
      </trkpt>
      <trkpt lat="45.71506" lon="2.90155">
        <ele>879.794983</ele>
        <time>2016-10-05T14:55:57Z</time>
      </trkpt>
      <trkpt lat="45.715" lon="2.90156">
        <ele>879.912476</ele>
        <time>2016-10-05T14:56:39Z</time>
      </trkpt>
      <trkpt lat="45.71488" lon="2.90138">
        <ele>880.725037</ele>
        <time>2016-10-05T14:56:43Z</time>
      </trkpt>
      <trkpt lat="45.71488" lon="2.90136">
        <ele>880.807495</ele>
        <time>2016-10-05T14:56:47Z</time>
      </trkpt>
      <trkpt lat="45.71499" lon="2.90104">
        <ele>881.570007</ele>
        <time>2016-10-05T15:02:44Z</time>
      </trkpt>
      <trkpt lat="45.7152" lon="2.90089">
        <ele>881.527588</ele>
        <time>2016-10-05T15:02:53Z</time>
      </trkpt>
      <trkpt lat="45.71516" lon="2.90087">
        <ele>881.671997</ele>
        <time>2016-10-05T15:02:57Z</time>
      </trkpt>
      <trkpt lat="45.71515" lon="2.90073">
        <ele>882.026611</ele>
        <time>2016-10-05T15:04:15Z</time>
      </trkpt>
      <trkpt lat="45.71498" lon="2.89985">
        <ele>883</ele>
        <time>2016-10-05T15:04:30Z</time>
      </trkpt>
      <trkpt lat="45.71481" lon="2.89899">
        <ele>881.925659</ele>
        <time>2016-10-05T15:04:41Z</time>
      </trkpt>
      <trkpt lat="45.71486" lon="2.89891">
        <ele>881.561584</ele>
        <time>2016-10-05T15:04:46Z</time>
      </trkpt>
      <trkpt lat="45.71709" lon="2.89827">
        <ele>876</ele>
        <time>2016-10-05T15:05:53Z</time>
      </trkpt>
      <trkpt lat="45.71694" lon="2.89753">
        <ele>875.75293</ele>
        <time>2016-10-05T15:06:47Z</time>
      </trkpt>
      <trkpt lat="45.71696" lon="2.89715">
        <ele>875.369995</ele>
        <time>2016-10-05T15:06:52Z</time>
      </trkpt>
      <trkpt lat="45.71706" lon="2.89662">
        <ele>874.086243</ele>
        <time>2016-10-05T15:07:00Z</time>
      </trkpt>
      <trkpt lat="45.71717" lon="2.89612">
        <ele>871.366455</ele>
        <time>2016-10-05T15:07:07Z</time>
      </trkpt>
      <trkpt lat="45.71726" lon="2.89579">
        <ele>867.309631</ele>
        <time>2016-10-05T15:07:13Z</time>
      </trkpt>
      <trkpt lat="45.71726" lon="2.89537">
        <ele>864.212585</ele>
        <time>2016-10-05T15:07:19Z</time>
      </trkpt>
      <trkpt lat="45.71725" lon="2.89504">
        <ele>861.170288</ele>
        <time>2016-10-05T15:07:23Z</time>
      </trkpt>
      <trkpt lat="45.71718" lon="2.89477">
        <ele>859.402344</ele>
        <time>2016-10-05T15:07:27Z</time>
      </trkpt>
      <trkpt lat="45.71711" lon="2.89465">
        <ele>859.536682</ele>
        <time>2016-10-05T15:07:29Z</time>
      </trkpt>
      <trkpt lat="45.71688" lon="2.89438">
        <ele>859.842957</ele>
        <time>2016-10-05T15:07:34Z</time>
      </trkpt>
      <trkpt lat="45.71648" lon="2.89394">
        <ele>855.926331</ele>
        <time>2016-10-05T15:07:48Z</time>
      </trkpt>
      <trkpt lat="45.71642" lon="2.89389">
        <ele>855.206299</ele>
        <time>2016-10-05T15:08:28Z</time>
      </trkpt>
      <trkpt lat="45.71588" lon="2.89372">
        <ele>853.092529</ele>
        <time>2016-10-05T15:08:37Z</time>
      </trkpt>
      <trkpt lat="45.71564" lon="2.89362">
        <ele>851.53772</ele>
        <time>2016-10-05T15:08:41Z</time>
      </trkpt>
      <trkpt lat="45.71515" lon="2.89336">
        <ele>848.584351</ele>
        <time>2016-10-05T15:09:55Z</time>
      </trkpt>
      <trkpt lat="45.71465" lon="2.89312">
        <ele>846.570679</ele>
        <time>2016-10-05T15:10:04Z</time>
      </trkpt>
      <trkpt lat="45.71442" lon="2.89293">
        <ele>843.391724</ele>
        <time>2016-10-05T15:10:09Z</time>
      </trkpt>
      <trkpt lat="45.71424" lon="2.89284">
        <ele>841.4776</ele>
        <time>2016-10-05T15:10:13Z</time>
      </trkpt>
      <trkpt lat="45.71418" lon="2.89284">
        <ele>841.410767</ele>
        <time>2016-10-05T15:10:17Z</time>
      </trkpt>
      <trkpt lat="45.71413" lon="2.89286">
        <ele>841.688049</ele>
        <time>2016-10-05T15:10:23Z</time>
      </trkpt>
      <trkpt lat="45.71372" lon="2.89313">
        <ele>844.099854</ele>
        <time>2016-10-05T15:14:59Z</time>
      </trkpt>
      <trkpt lat="45.7134" lon="2.89334">
        <ele>844.914734</ele>
        <time>2016-10-05T15:15:04Z</time>
      </trkpt>
      <trkpt lat="45.71296" lon="2.89374">
        <ele>848.208801</ele>
        <time>2016-10-05T15:15:12Z</time>
      </trkpt>
      <trkpt lat="45.71265" lon="2.89398">
        <ele>846.549438</ele>
        <time>2016-10-05T15:15:41Z</time>
      </trkpt>
      <trkpt lat="45.71226" lon="2.89437">
        <ele>848.425781</ele>
        <time>2016-10-05T15:15:47Z</time>
      </trkpt>
      <trkpt lat="45.71203" lon="2.89469">
        <ele>850.222595</ele>
        <time>2016-10-05T15:15:52Z</time>
      </trkpt>
      <trkpt lat="45.7119" lon="2.89484">
        <ele>850.867432</ele>
        <time>2016-10-05T15:15:56Z</time>
      </trkpt>
      <trkpt lat="45.71176" lon="2.89497">
        <ele>851.042114</ele>
        <time>2016-10-05T15:16:06Z</time>
      </trkpt>
      <trkpt lat="45.71149" lon="2.8952">
        <ele>851.161255</ele>
        <time>2016-10-05T15:16:12Z</time>
      </trkpt>
      <trkpt lat="45.71122" lon="2.89551">
        <ele>854.070679</ele>
        <time>2016-10-05T15:16:54Z</time>
      </trkpt>
      <trkpt lat="45.71095" lon="2.89574">
        <ele>855.722107</ele>
        <time>2016-10-05T15:16:59Z</time>
      </trkpt>
      <trkpt lat="45.71048" lon="2.8959">
        <ele>853.487305</ele>
        <time>2016-10-05T15:17:05Z</time>
      </trkpt>
      <trkpt lat="45.70977" lon="2.89647">
        <ele>855.972534</ele>
        <time>2016-10-05T15:17:15Z</time>
      </trkpt>
      <trkpt lat="45.70945" lon="2.89682">
        <ele>858.150085</ele>
        <time>2016-10-05T15:17:20Z</time>
      </trkpt>
      <trkpt lat="45.70924" lon="2.89716">
        <ele>860.349731</ele>
        <time>2016-10-05T15:17:25Z</time>
      </trkpt>
      <trkpt lat="45.70904" lon="2.89751">
        <ele>861.874512</ele>
        <time>2016-10-05T15:17:35Z</time>
      </trkpt>
      <trkpt lat="45.70851" lon="2.89732">
        <ele>860.124817</ele>
        <time>2016-10-05T15:18:53Z</time>
      </trkpt>
      <trkpt lat="45.70834" lon="2.89727">
        <ele>860.249573</ele>
        <time>2016-10-05T15:18:56Z</time>
      </trkpt>
      <trkpt lat="45.70802" lon="2.89704">
        <ele>858.238403</ele>
        <time>2016-10-05T15:19:02Z</time>
      </trkpt>
      <trkpt lat="45.70786" lon="2.89689">
        <ele>856.85498</ele>
        <time>2016-10-05T15:19:05Z</time>
      </trkpt>
      <trkpt lat="45.70772" lon="2.89681">
        <ele>855.959839</ele>
        <time>2016-10-05T15:19:10Z</time>
      </trkpt>
      <trkpt lat="45.70742" lon="2.89679">
        <ele>856.049561</ele>
        <time>2016-10-05T15:19:36Z</time>
      </trkpt>
      <trkpt lat="45.70663" lon="2.89681">
        <ele>856.162476</ele>
        <time>2016-10-05T15:19:52Z</time>
      </trkpt>
      <trkpt lat="45.70656" lon="2.89678">
        <ele>855.799988</ele>
        <time>2016-10-05T15:19:57Z</time>
      </trkpt>
      <trkpt lat="45.70639" lon="2.89661">
        <ele>853.099976</ele>
        <time>2016-10-05T15:21:34Z</time>
      </trkpt>
      <trkpt lat="45.7063" lon="2.89647">
        <ele>851.019043</ele>
        <time>2016-10-05T15:21:39Z</time>
      </trkpt>
      <trkpt lat="45.70626" lon="2.89622">
        <ele>853.888</ele>
        <time>2016-10-05T15:21:44Z</time>
      </trkpt>
      <trkpt lat="45.70626" lon="2.89603">
        <ele>857.400574</ele>
        <time>2016-10-05T15:21:47Z</time>
      </trkpt>
      <trkpt lat="45.70637" lon="2.89556">
        <ele>866.001038</ele>
        <time>2016-10-05T15:21:55Z</time>
      </trkpt>
      <trkpt lat="45.70654" lon="2.89501">
        <ele>875.596069</ele>
        <time>2016-10-05T15:22:03Z</time>
      </trkpt>
      <trkpt lat="45.70659" lon="2.89477">
        <ele>880.017334</ele>
        <time>2016-10-05T15:22:08Z</time>
      </trkpt>
      <trkpt lat="45.70658" lon="2.89473">
        <ele>880.874207</ele>
        <time>2016-10-05T15:22:11Z</time>
      </trkpt>
      <trkpt lat="45.70677" lon="2.89398">
        <ele>895.239014</ele>
        <time>2016-10-05T15:24:06Z</time>
      </trkpt>
      <trkpt lat="45.70692" lon="2.89388">
        <ele>895.368225</ele>
        <time>2016-10-05T15:24:12Z</time>
      </trkpt>
      <trkpt lat="45.70707" lon="2.89383">
        <ele>894.070007</ele>
        <time>2016-10-05T15:24:29Z</time>
      </trkpt>
      <trkpt lat="45.70713" lon="2.89377">
        <ele>894.005005</ele>
        <time>2016-10-05T15:24:37Z</time>
      </trkpt>
      <trkpt lat="45.70718" lon="2.8937">
        <ele>894.378479</ele>
        <time>2016-10-05T15:24:43Z</time>
      </trkpt>
      <trkpt lat="45.70722" lon="2.89352">
        <ele>896.449036</ele>
        <time>2016-10-05T15:24:54Z</time>
      </trkpt>
      <trkpt lat="45.70721" lon="2.8934">
        <ele>898.584473</ele>
        <time>2016-10-05T15:30:10Z</time>
      </trkpt>
      <trkpt lat="45.7072" lon="2.89298">
        <ele>904.031982</ele>
        <time>2016-10-05T15:31:16Z</time>
      </trkpt>
      <trkpt lat="45.70717" lon="2.89282">
        <ele>905.969299</ele>
        <time>2016-10-05T15:31:19Z</time>
      </trkpt>
      <trkpt lat="45.70712" lon="2.89223">
        <ele>910.327087</ele>
        <time>2016-10-05T15:31:27Z</time>
      </trkpt>
      <trkpt lat="45.70708" lon="2.89176">
        <ele>911.825012</ele>
        <time>2016-10-05T15:31:33Z</time>
      </trkpt>
      <trkpt lat="45.70705" lon="2.89164">
        <ele>911.955017</ele>
        <time>2016-10-05T15:31:38Z</time>
      </trkpt>
      <trkpt lat="45.70697" lon="2.89116">
        <ele>912.173889</ele>
        <time>2016-10-05T15:32:51Z</time>
      </trkpt>
      <trkpt lat="45.70693" lon="2.89079">
        <ele>911.919434</ele>
        <time>2016-10-05T15:32:56Z</time>
      </trkpt>
      <trkpt lat="45.7069" lon="2.89036">
        <ele>910.880066</ele>
        <time>2016-10-05T15:33:09Z</time>
      </trkpt>
      <trkpt lat="45.70686" lon="2.89001">
        <ele>909.870544</ele>
        <time>2016-10-05T15:34:16Z</time>
      </trkpt>
      <trkpt lat="45.7068" lon="2.88966">
        <ele>907.968689</ele>
        <time>2016-10-05T15:34:20Z</time>
      </trkpt>
      <trkpt lat="45.70677" lon="2.88947">
        <ele>906.875488</ele>
        <time>2016-10-05T15:34:23Z</time>
      </trkpt>
      <trkpt lat="45.70673" lon="2.88941">
        <ele>906.612671</ele>
        <time>2016-10-05T15:34:27Z</time>
      </trkpt>
      <trkpt lat="45.70647" lon="2.88945">
        <ele>907.518005</ele>
        <time>2016-10-05T15:35:56Z</time>
      </trkpt>
      <trkpt lat="45.70628" lon="2.88945">
        <ele>908.203735</ele>
        <time>2016-10-05T15:36:00Z</time>
      </trkpt>
      <trkpt lat="45.70612" lon="2.88921">
        <ele>906.970276</ele>
        <time>2016-10-05T15:36:05Z</time>
      </trkpt>
      <trkpt lat="45.70606" lon="2.88892">
        <ele>904.631287</ele>
        <time>2016-10-05T15:36:10Z</time>
      </trkpt>
      <trkpt lat="45.70602" lon="2.88863">
        <ele>902.318848</ele>
        <time>2016-10-05T15:36:16Z</time>
      </trkpt>
      <trkpt lat="45.70602" lon="2.88859">
        <ele>902.037476</ele>
        <time>2016-10-05T15:36:21Z</time>
      </trkpt>
      <trkpt lat="45.70598" lon="2.88857">
        <ele>902.009644</ele>
        <time>2016-10-05T15:37:25Z</time>
      </trkpt>
      <trkpt lat="45.70588" lon="2.88865">
        <ele>903.153564</ele>
        <time>2016-10-05T15:37:29Z</time>
      </trkpt>
      <trkpt lat="45.70561" lon="2.88863">
        <ele>905.490479</ele>
        <time>2016-10-05T15:37:35Z</time>
      </trkpt>
      <trkpt lat="45.70536" lon="2.88859">
        <ele>907.910339</ele>
        <time>2016-10-05T15:37:41Z</time>
      </trkpt>
      <trkpt lat="45.70522" lon="2.88848">
        <ele>909.208069</ele>
        <time>2016-10-05T15:37:46Z</time>
      </trkpt>
      <trkpt lat="45.70516" lon="2.8884">
        <ele>909.816345</ele>
        <time>2016-10-05T15:37:52Z</time>
      </trkpt>
      <trkpt lat="45.70508" lon="2.88827">
        <ele>910.64325</ele>
        <time>2016-10-05T15:38:59Z</time>
      </trkpt>
      <trkpt lat="45.70477" lon="2.88818">
        <ele>914.555847</ele>
        <time>2016-10-05T15:39:04Z</time>
      </trkpt>
      <trkpt lat="45.70453" lon="2.88814">
        <ele>917.537476</ele>
        <time>2016-10-05T15:39:09Z</time>
      </trkpt>
      <trkpt lat="45.70425" lon="2.8881">
        <ele>920.674988</ele>
        <time>2016-10-05T15:39:15Z</time>
      </trkpt>
      <trkpt lat="45.70413" lon="2.88805">
        <ele>922.005005</ele>
        <time>2016-10-05T15:39:19Z</time>
      </trkpt>
      <trkpt lat="45.70385" lon="2.88818">
        <ele>923.374084</ele>
        <time>2016-10-05T15:41:32Z</time>
      </trkpt>
      <trkpt lat="45.7036" lon="2.88847">
        <ele>924.856262</ele>
        <time>2016-10-05T15:41:38Z</time>
      </trkpt>
      <trkpt lat="45.70341" lon="2.8889">
        <ele>925.45813</ele>
        <time>2016-10-05T15:41:44Z</time>
      </trkpt>
      <trkpt lat="45.70321" lon="2.88936">
        <ele>926.142395</ele>
        <time>2016-10-05T15:41:51Z</time>
      </trkpt>
      <trkpt lat="45.70316" lon="2.88951">
        <ele>926.55072</ele>
        <time>2016-10-05T15:42:11Z</time>
      </trkpt>
      <trkpt lat="45.70303" lon="2.88951">
        <ele>927.036682</ele>
        <time>2016-10-05T15:45:05Z</time>
      </trkpt>
      <trkpt lat="45.70201" lon="2.88931">
        <ele>930.688782</ele>
        <time>2016-10-05T15:46:04Z</time>
      </trkpt>
      <trkpt lat="45.70092" lon="2.88911">
        <ele>932.363525</ele>
        <time>2016-10-05T15:46:17Z</time>
      </trkpt>
      <trkpt lat="45.7007" lon="2.88905">
        <ele>932.761047</ele>
        <time>2016-10-05T15:46:24Z</time>
      </trkpt>
      <trkpt lat="45.70042" lon="2.889">
        <ele>933.10376</ele>
        <time>2016-10-05T15:46:36Z</time>
      </trkpt>
      <trkpt lat="45.70024" lon="2.88898">
        <ele>933.302429</ele>
        <time>2016-10-05T15:48:01Z</time>
      </trkpt>
      <trkpt lat="45.69999" lon="2.88893">
        <ele>933.544983</ele>
        <time>2016-10-05T15:48:07Z</time>
      </trkpt>
      <trkpt lat="45.69982" lon="2.88894">
        <ele>933.530029</ele>
        <time>2016-10-05T15:48:12Z</time>
      </trkpt>
      <trkpt lat="45.69879" lon="2.88906">
        <ele>933.607666</ele>
        <time>2016-10-05T15:48:32Z</time>
      </trkpt>
      <trkpt lat="45.69696" lon="2.88923">
        <ele>932.197876</ele>
        <time>2016-10-05T15:49:04Z</time>
      </trkpt>
      <trkpt lat="45.6963" lon="2.88921">
        <ele>935.374512</ele>
        <time>2016-10-05T15:50:53Z</time>
      </trkpt>
      <trkpt lat="45.69589" lon="2.88916">
        <ele>939.255493</ele>
        <time>2016-10-05T15:50:58Z</time>
      </trkpt>
      <trkpt lat="45.69544" lon="2.88897">
        <ele>939.490662</ele>
        <time>2016-10-05T15:51:03Z</time>
      </trkpt>
      <trkpt lat="45.69485" lon="2.88868">
        <ele>939.412598</ele>
        <time>2016-10-05T15:51:09Z</time>
      </trkpt>
      <trkpt lat="45.6942" lon="2.88841">
        <ele>940.273804</ele>
        <time>2016-10-05T15:51:15Z</time>
      </trkpt>
      <trkpt lat="45.69389" lon="2.88833">
        <ele>940.894775</ele>
        <time>2016-10-05T15:51:18Z</time>
      </trkpt>
      <trkpt lat="45.69365" lon="2.88843">
        <ele>941.847473</ele>
        <time>2016-10-05T15:51:22Z</time>
      </trkpt>
      <trkpt lat="45.69332" lon="2.88849">
        <ele>942.828735</ele>
        <time>2016-10-05T15:51:28Z</time>
      </trkpt>
      <trkpt lat="45.69217" lon="2.8885">
        <ele>948.108215</ele>
        <time>2016-10-05T15:51:54Z</time>
      </trkpt>
      <trkpt lat="45.69201" lon="2.88842">
        <ele>948.420654</ele>
        <time>2016-10-05T15:51:59Z</time>
      </trkpt>
      <trkpt lat="45.69181" lon="2.88815">
        <ele>949.244385</ele>
        <time>2016-10-05T15:52:06Z</time>
      </trkpt>
      <trkpt lat="45.69163" lon="2.88793">
        <ele>950.683044</ele>
        <time>2016-10-05T15:52:12Z</time>
      </trkpt>
      <trkpt lat="45.69138" lon="2.88774">
        <ele>950.404175</ele>
        <time>2016-10-05T15:55:48Z</time>
      </trkpt>
      <trkpt lat="45.69111" lon="2.88765">
        <ele>950.238464</ele>
        <time>2016-10-05T15:55:52Z</time>
      </trkpt>
      <trkpt lat="45.69059" lon="2.88767">
        <ele>949.198547</ele>
        <time>2016-10-05T15:55:59Z</time>
      </trkpt>
      <trkpt lat="45.6903" lon="2.8876">
        <ele>949.746216</ele>
        <time>2016-10-05T15:56:03Z</time>
      </trkpt>
      <trkpt lat="45.68985" lon="2.88728">
        <ele>953.671509</ele>
        <time>2016-10-05T15:56:10Z</time>
      </trkpt>
      <trkpt lat="45.6894" lon="2.88698">
        <ele>955.7995</ele>
        <time>2016-10-05T15:56:17Z</time>
      </trkpt>
      <trkpt lat="45.68881" lon="2.88648">
        <ele>958.555603</ele>
        <time>2016-10-05T15:56:33Z</time>
      </trkpt>
      <trkpt lat="45.68852" lon="2.88626">
        <ele>958.37085</ele>
        <time>2016-10-05T15:56:39Z</time>
      </trkpt>
      <trkpt lat="45.68808" lon="2.88583">
        <ele>958.550598</ele>
        <time>2016-10-05T15:56:48Z</time>
      </trkpt>
      <trkpt lat="45.68753" lon="2.88501">
        <ele>960.476074</ele>
        <time>2016-10-05T15:57:02Z</time>
      </trkpt>
      <trkpt lat="45.68737" lon="2.88488">
        <ele>960.513672</ele>
        <time>2016-10-05T15:57:06Z</time>
      </trkpt>
      <trkpt lat="45.68708" lon="2.88506">
        <ele>958.839355</ele>
        <time>2016-10-05T15:57:11Z</time>
      </trkpt>
      <trkpt lat="45.68672" lon="2.88532">
        <ele>959.414978</ele>
        <time>2016-10-05T15:57:16Z</time>
      </trkpt>
      <trkpt lat="45.68636" lon="2.8857">
        <ele>960.535522</ele>
        <time>2016-10-05T15:57:21Z</time>
      </trkpt>
      <trkpt lat="45.68585" lon="2.88601">
        <ele>963.372986</ele>
        <time>2016-10-05T15:57:29Z</time>
      </trkpt>
      <trkpt lat="45.68568" lon="2.8862">
        <ele>963.921265</ele>
        <time>2016-10-05T15:57:33Z</time>
      </trkpt>
      <trkpt lat="45.68566" lon="2.88627">
        <ele>963.777527</ele>
        <time>2016-10-05T15:57:34Z</time>
      </trkpt>
      <trkpt lat="45.6856" lon="2.88659">
        <ele>962.802307</ele>
        <time>2016-10-05T15:57:40Z</time>
      </trkpt>
      <trkpt lat="45.68534" lon="2.88735">
        <ele>962.150024</ele>
        <time>2016-10-05T15:57:43Z</time>
      </trkpt>
      <trkpt lat="45.68488" lon="2.88894">
        <ele>965.777527</ele>
        <time>2016-10-05T15:57:53Z</time>
      </trkpt>
      <trkpt lat="45.68474" lon="2.88916">
        <ele>967.265015</ele>
        <time>2016-10-05T15:57:56Z</time>
      </trkpt>
      <trkpt lat="45.68441" lon="2.88928">
        <ele>969.119995</ele>
        <time>2016-10-05T15:58:03Z</time>
      </trkpt>
      <trkpt lat="45.68398" lon="2.88945">
        <ele>972.77594</ele>
        <time>2016-10-05T15:58:14Z</time>
      </trkpt>
      <trkpt lat="45.68284" lon="2.88983">
        <ele>974.909851</ele>
        <time>2016-10-05T15:58:29Z</time>
      </trkpt>
      <trkpt lat="45.68246" lon="2.8899">
        <ele>973.672913</ele>
        <time>2016-10-05T15:58:34Z</time>
      </trkpt>
      <trkpt lat="45.67946" lon="2.89051">
        <ele>985.023193</ele>
        <time>2016-10-05T15:59:09Z</time>
      </trkpt>
      <trkpt lat="45.67848" lon="2.89064">
        <ele>993.053101</ele>
        <time>2016-10-05T15:59:22Z</time>
      </trkpt>
      <trkpt lat="45.67763" lon="2.89071">
        <ele>997.406555</ele>
        <time>2016-10-05T15:59:38Z</time>
      </trkpt>
      <trkpt lat="45.67729" lon="2.89068">
        <ele>998.828125</ele>
        <time>2016-10-05T15:59:43Z</time>
      </trkpt>
      <trkpt lat="45.6765" lon="2.89054">
        <ele>1002.087524</ele>
        <time>2016-10-05T15:59:53Z</time>
      </trkpt>
      <trkpt lat="45.67599" lon="2.89056">
        <ele>1003.802124</ele>
        <time>2016-10-05T16:00:00Z</time>
      </trkpt>
      <trkpt lat="45.67574" lon="2.89059">
        <ele>1004.941895</ele>
        <time>2016-10-05T16:00:07Z</time>
      </trkpt>
      <trkpt lat="45.67589" lon="2.89125">
        <ele>1002.257507</ele>
        <time>2016-10-10T14:54:08Z</time>
      </trkpt>
      <trkpt lat="45.67599" lon="2.89158">
        <ele>1001.559998</ele>
        <time>2016-10-10T14:54:11Z</time>
      </trkpt>
      <trkpt lat="45.67607" lon="2.89237">
        <ele>1002.862488</ele>
        <time>2016-10-10T14:54:17Z</time>
      </trkpt>
      <trkpt lat="45.67608" lon="2.8928">
        <ele>1003.481262</ele>
        <time>2016-10-10T14:54:21Z</time>
      </trkpt>
      <trkpt lat="45.6761" lon="2.89316">
        <ele>1003.826477</ele>
        <time>2016-10-10T14:54:27Z</time>
      </trkpt>
      <trkpt lat="45.67603" lon="2.89322">
        <ele>1004.112732</ele>
        <time>2016-10-10T14:54:31Z</time>
      </trkpt>
      <trkpt lat="45.67582" lon="2.89313">
        <ele>1004.788574</ele>
        <time>2016-10-10T14:57:44Z</time>
      </trkpt>
      <trkpt lat="45.67506" lon="2.89269">
        <ele>1008.169983</ele>
        <time>2016-10-10T14:57:54Z</time>
      </trkpt>
      <trkpt lat="45.67366" lon="2.8919">
        <ele>1014.892517</ele>
        <time>2016-10-10T14:58:07Z</time>
      </trkpt>
      <trkpt lat="45.67307" lon="2.89153">
        <ele>1019.202515</ele>
        <time>2016-10-10T14:58:21Z</time>
      </trkpt>
      <trkpt lat="45.67119" lon="2.88995">
        <ele>1035.160034</ele>
        <time>2016-10-10T14:59:57Z</time>
      </trkpt>
      <trkpt lat="45.6708" lon="2.88963">
        <ele>1039.162476</ele>
        <time>2016-10-10T15:00:04Z</time>
      </trkpt>
      <trkpt lat="45.67072" lon="2.88946">
        <ele>1040.030029</ele>
        <time>2016-10-10T15:00:08Z</time>
      </trkpt>
      <trkpt lat="45.67063" lon="2.88945">
        <ele>1040.494995</ele>
        <time>2016-10-10T15:00:12Z</time>
      </trkpt>
      <trkpt lat="45.67047" lon="2.88933">
        <ele>1041.577515</ele>
        <time>2016-10-10T15:01:47Z</time>
      </trkpt>
      <trkpt lat="45.66986" lon="2.88881">
        <ele>1043.433716</ele>
        <time>2016-10-10T15:02:05Z</time>
      </trkpt>
      <trkpt lat="45.6702" lon="2.88909">
        <ele>1042.665039</ele>
        <time>2016-10-10T15:02:38Z</time>
      </trkpt>
      <trkpt lat="45.6698" lon="2.88876">
        <ele>1043.658691</ele>
        <time>2016-10-10T15:05:11Z</time>
      </trkpt>
      <trkpt lat="45.66951" lon="2.88853">
        <ele>1044.660034</ele>
        <time>2016-10-10T15:05:17Z</time>
      </trkpt>
      <trkpt lat="45.66864" lon="2.8878">
        <ele>1047.726318</ele>
        <time>2016-10-10T15:05:33Z</time>
      </trkpt>
      <trkpt lat="45.66807" lon="2.88731">
        <ele>1049.84314</ele>
        <time>2016-10-10T15:05:42Z</time>
      </trkpt>
      <trkpt lat="45.66752" lon="2.88685">
        <ele>1052.522583</ele>
        <time>2016-10-10T15:05:53Z</time>
      </trkpt>
      <trkpt lat="45.66738" lon="2.88672">
        <ele>1053.062744</ele>
        <time>2016-10-10T15:05:59Z</time>
      </trkpt>
      <trkpt lat="45.66735" lon="2.88668">
        <ele>1053.205078</ele>
        <time>2016-10-10T15:06:04Z</time>
      </trkpt>
      <trkpt lat="45.6671" lon="2.88775">
        <ele>1050.915039</ele>
        <time>2016-10-10T15:07:17Z</time>
      </trkpt>
      <trkpt lat="45.66697" lon="2.88828">
        <ele>1048.16687</ele>
        <time>2016-10-10T15:07:22Z</time>
      </trkpt>
      <trkpt lat="45.6665" lon="2.89034">
        <ele>1030.30542</ele>
        <time>2016-10-10T15:07:40Z</time>
      </trkpt>
      <trkpt lat="45.66636" lon="2.89059">
        <ele>1027.636108</ele>
        <time>2016-10-10T15:07:44Z</time>
      </trkpt>
      <trkpt lat="45.66619" lon="2.89068">
        <ele>1026.8479</ele>
        <time>2016-10-10T15:07:49Z</time>
      </trkpt>
      <trkpt lat="45.66592" lon="2.89079">
        <ele>1025.828857</ele>
        <time>2016-10-10T15:08:56Z</time>
      </trkpt>
      <trkpt lat="45.66562" lon="2.89084">
        <ele>1026.421631</ele>
        <time>2016-10-10T15:09:02Z</time>
      </trkpt>
      <trkpt lat="45.66503" lon="2.89091">
        <ele>1029.582275</ele>
        <time>2016-10-10T15:09:14Z</time>
      </trkpt>
      <trkpt lat="45.66481" lon="2.89096">
        <ele>1030.872559</ele>
        <time>2016-10-10T15:09:18Z</time>
      </trkpt>
      <trkpt lat="45.66437" lon="2.89099">
        <ele>1033.969727</ele>
        <time>2016-10-10T15:09:25Z</time>
      </trkpt>
      <trkpt lat="45.66387" lon="2.89091">
        <ele>1036.41333</ele>
        <time>2016-10-10T15:09:33Z</time>
      </trkpt>
      <trkpt lat="45.66342" lon="2.8908">
        <ele>1037.798462</ele>
        <time>2016-10-10T15:09:42Z</time>
      </trkpt>
      <trkpt lat="45.66323" lon="2.89078">
        <ele>1037.343628</ele>
        <time>2016-10-10T15:11:26Z</time>
      </trkpt>
      <trkpt lat="45.6627" lon="2.89069">
        <ele>1036.35791</ele>
        <time>2016-10-10T15:11:40Z</time>
      </trkpt>
      <trkpt lat="45.66245" lon="2.89076">
        <ele>1032.488281</ele>
        <time>2016-10-10T15:12:58Z</time>
      </trkpt>
      <trkpt lat="45.66234" lon="2.89078">
        <ele>1030.771118</ele>
        <time>2016-10-10T15:13:04Z</time>
      </trkpt>
      <trkpt lat="45.66213" lon="2.89078">
        <ele>1029.476929</ele>
        <time>2016-10-10T15:13:11Z</time>
      </trkpt>
      <trkpt lat="45.66201" lon="2.8908">
        <ele>1028.383789</ele>
        <time>2016-10-10T15:19:47Z</time>
      </trkpt>
      <trkpt lat="45.66165" lon="2.89049">
        <ele>1033.395386</ele>
        <time>2016-10-10T15:20:29Z</time>
      </trkpt>
      <trkpt lat="45.66145" lon="2.89026">
        <ele>1036.921021</ele>
        <time>2016-10-10T15:20:37Z</time>
      </trkpt>
      <trkpt lat="45.66098" lon="2.88986">
        <ele>1039.649902</ele>
        <time>2016-10-10T15:20:54Z</time>
      </trkpt>
      <trkpt lat="45.66081" lon="2.88969">
        <ele>1041.164185</ele>
        <time>2016-10-10T15:21:02Z</time>
      </trkpt>
      <trkpt lat="45.66059" lon="2.88942">
        <ele>1042.881836</ele>
        <time>2016-10-10T15:21:12Z</time>
      </trkpt>
      <trkpt lat="45.66043" lon="2.88927">
        <ele>1043.425049</ele>
        <time>2016-10-10T15:21:19Z</time>
      </trkpt>
      <trkpt lat="45.65992" lon="2.88886">
        <ele>1045.280029</ele>
        <time>2016-10-10T15:21:38Z</time>
      </trkpt>
      <trkpt lat="45.65976" lon="2.88865">
        <ele>1047.476196</ele>
        <time>2016-10-10T15:21:49Z</time>
      </trkpt>
      <trkpt lat="45.65971" lon="2.88864">
        <ele>1047.651245</ele>
        <time>2016-10-10T15:21:54Z</time>
      </trkpt>
      <trkpt lat="45.6596" lon="2.88863">
        <ele>1047.721191</ele>
        <time>2016-10-10T15:24:22Z</time>
      </trkpt>
      <trkpt lat="45.65931" lon="2.8887">
        <ele>1047.839722</ele>
        <time>2016-10-10T15:24:39Z</time>
      </trkpt>
      <trkpt lat="45.65913" lon="2.8887">
        <ele>1048.385254</ele>
        <time>2016-10-10T15:24:48Z</time>
      </trkpt>
      <trkpt lat="45.65901" lon="2.88869">
        <ele>1049.269775</ele>
        <time>2016-10-10T15:24:55Z</time>
      </trkpt>
      <trkpt lat="45.65875" lon="2.88864">
        <ele>1051.778809</ele>
        <time>2016-10-10T15:25:07Z</time>
      </trkpt>
      <trkpt lat="45.65807" lon="2.88844">
        <ele>1055.329956</ele>
        <time>2016-10-10T15:25:42Z</time>
      </trkpt>
      <trkpt lat="45.65777" lon="2.88833">
        <ele>1055.87085</ele>
        <time>2016-10-10T15:25:54Z</time>
      </trkpt>
      <trkpt lat="45.65764" lon="2.88824">
        <ele>1057.071777</ele>
        <time>2016-10-10T15:26:00Z</time>
      </trkpt>
      <trkpt lat="45.65721" lon="2.88764">
        <ele>1059.555908</ele>
        <time>2016-10-10T15:26:21Z</time>
      </trkpt>
      <trkpt lat="45.65688" lon="2.88675">
        <ele>1061.984985</ele>
        <time>2016-10-10T15:27:12Z</time>
      </trkpt>
      <trkpt lat="45.65676" lon="2.88652">
        <ele>1062.130371</ele>
        <time>2016-10-10T15:27:18Z</time>
      </trkpt>
      <trkpt lat="45.65605" lon="2.88609">
        <ele>1060.976563</ele>
        <time>2016-10-10T15:27:36Z</time>
      </trkpt>
      <trkpt lat="45.65593" lon="2.88598">
        <ele>1061.309204</ele>
        <time>2016-10-10T15:27:39Z</time>
      </trkpt>
      <trkpt lat="45.65554" lon="2.88502">
        <ele>1066.702393</ele>
        <time>2016-10-10T15:28:00Z</time>
      </trkpt>
      <trkpt lat="45.65552" lon="2.88483">
        <ele>1068.305054</ele>
      </trkpt>
      <trkpt lat="45.65579" lon="2.8849">
        <ele>1068.733521</ele>
        <time>2016-10-10T15:32:48Z</time>
      </trkpt>
      <trkpt lat="45.65608" lon="2.88479">
        <ele>1070.463135</ele>
        <time>2016-10-10T15:32:54Z</time>
      </trkpt>
      <trkpt lat="45.65652" lon="2.88448">
        <ele>1072.60498</ele>
        <time>2016-10-10T15:33:02Z</time>
      </trkpt>
      <trkpt lat="45.6571" lon="2.88405">
        <ele>1073.08374</ele>
        <time>2016-10-10T15:33:11Z</time>
      </trkpt>
      <trkpt lat="45.65758" lon="2.88373">
        <ele>1072.98877</ele>
        <time>2016-10-10T15:33:18Z</time>
      </trkpt>
      <trkpt lat="45.65816" lon="2.88362">
        <ele>1073.175049</ele>
        <time>2016-10-10T15:33:26Z</time>
      </trkpt>
      <trkpt lat="45.65878" lon="2.88351">
        <ele>1073.650391</ele>
        <time>2016-10-10T15:33:43Z</time>
      </trkpt>
      <trkpt lat="45.65997" lon="2.88333">
        <ele>1072.872559</ele>
        <time>2016-10-10T15:34:01Z</time>
      </trkpt>
      <trkpt lat="45.66025" lon="2.88336">
        <ele>1072.206177</ele>
        <time>2016-10-10T15:34:06Z</time>
      </trkpt>
      <trkpt lat="45.66047" lon="2.88346">
        <ele>1071.560059</ele>
        <time>2016-10-10T15:34:11Z</time>
      </trkpt>
      <trkpt lat="45.66054" lon="2.8834">
        <ele>1071.508789</ele>
        <time>2016-10-10T15:34:15Z</time>
      </trkpt>
      <trkpt lat="45.66061" lon="2.88314">
        <ele>1071.76001</ele>
        <time>2016-10-10T15:36:38Z</time>
      </trkpt>
      <trkpt lat="45.6608" lon="2.88213">
        <ele>1070.534058</ele>
        <time>2016-10-10T15:36:48Z</time>
      </trkpt>
      <trkpt lat="45.66099" lon="2.88129">
        <ele>1065.589966</ele>
        <time>2016-10-10T15:36:54Z</time>
      </trkpt>
      <trkpt lat="45.66107" lon="2.88087">
        <ele>1062.88147</ele>
        <time>2016-10-10T15:36:58Z</time>
      </trkpt>
      <trkpt lat="45.6611" lon="2.88064">
        <ele>1061.329956</ele>
        <time>2016-10-10T15:37:02Z</time>
      </trkpt>
      <trkpt lat="45.66116" lon="2.88043">
        <ele>1060.734863</ele>
        <time>2016-10-10T15:37:08Z</time>
      </trkpt>
      <trkpt lat="45.66147" lon="2.88047">
        <ele>1060.05896</ele>
        <time>2016-10-10T15:38:39Z</time>
      </trkpt>
      <trkpt lat="45.6626" lon="2.88056">
        <ele>1064.150024</ele>
        <time>2016-10-10T15:38:56Z</time>
      </trkpt>
      <trkpt lat="45.66283" lon="2.88056">
        <ele>1065.072754</ele>
        <time>2016-10-10T15:39:00Z</time>
      </trkpt>
      <trkpt lat="45.66306" lon="2.88059">
        <ele>1065.755371</ele>
        <time>2016-10-10T15:41:18Z</time>
      </trkpt>
      <trkpt lat="45.66521" lon="2.88075">
        <ele>1057.189941</ele>
        <time>2016-10-10T15:41:54Z</time>
      </trkpt>
      <trkpt lat="45.66563" lon="2.88085">
        <ele>1054.170044</ele>
        <time>2016-10-10T15:42:00Z</time>
      </trkpt>
      <trkpt lat="45.66637" lon="2.88109">
        <ele>1048.157471</ele>
        <time>2016-10-10T15:42:10Z</time>
      </trkpt>
      <trkpt lat="45.66711" lon="2.88137">
        <ele>1041.398804</ele>
        <time>2016-10-10T15:42:23Z</time>
      </trkpt>
      <trkpt lat="45.66718" lon="2.88125">
        <ele>1040.022217</ele>
        <time>2016-10-10T15:42:28Z</time>
      </trkpt>
      <trkpt lat="45.66731" lon="2.88091">
        <ele>1037.612549</ele>
        <time>2016-10-10T15:42:34Z</time>
      </trkpt>
      <trkpt lat="45.66741" lon="2.88059">
        <ele>1035.44873</ele>
        <time>2016-10-10T15:42:38Z</time>
      </trkpt>
      <trkpt lat="45.66745" lon="2.88033">
        <ele>1033.743774</ele>
        <time>2016-10-10T15:42:42Z</time>
      </trkpt>
      <trkpt lat="45.66735" lon="2.8801">
        <ele>1033.849976</ele>
        <time>2016-10-10T15:42:46Z</time>
      </trkpt>
      <trkpt lat="45.66727" lon="2.87973">
        <ele>1033.348633</ele>
        <time>2016-10-10T15:42:51Z</time>
      </trkpt>
      <trkpt lat="45.66737" lon="2.87948">
        <ele>1031.700928</ele>
        <time>2016-10-10T15:42:55Z</time>
      </trkpt>
      <trkpt lat="45.66745" lon="2.87941">
        <ele>1030.74646</ele>
        <time>2016-10-10T15:42:57Z</time>
      </trkpt>
      <trkpt lat="45.66767" lon="2.87929">
        <ele>1028.657349</ele>
        <time>2016-10-10T15:43:02Z</time>
      </trkpt>
      <trkpt lat="45.66787" lon="2.87905">
        <ele>1027.72168</ele>
        <time>2016-10-10T15:43:08Z</time>
      </trkpt>
      <trkpt lat="45.66807" lon="2.87877">
        <ele>1027.326172</ele>
        <time>2016-10-10T15:43:15Z</time>
      </trkpt>
      <trkpt lat="45.66812" lon="2.87868">
        <ele>1027.350708</ele>
        <time>2016-10-10T15:43:17Z</time>
      </trkpt>
      <trkpt lat="45.66845" lon="2.87848">
        <ele>1026.86499</ele>
        <time>2016-10-10T15:43:26Z</time>
      </trkpt>
      <trkpt lat="45.66868" lon="2.87848">
        <ele>1025.896851</ele>
        <time>2016-10-10T15:43:30Z</time>
      </trkpt>
      <trkpt lat="45.669" lon="2.87862">
        <ele>1024.480103</ele>
        <time>2016-10-10T15:43:38Z</time>
      </trkpt>
    </trkseg>
  </trk>
</gpx>